<?xml version="1.0" encoding="UTF-8" standalone="no" ?>
<gpx xmlns="http://www.topografix.com/GPX/1/1" xmlns:xsi="http://www.w3.org/2001/XMLSchema-instance" xsi:schemaLocation="http://www.topografix.com/GPX/1/1 http://www.topografix.com/GPX/1/1/gpx.xsd" version="1.1" creator="VisuGPX - https://www.visugpx.com">
  <metadata>
    <name>CHENOVE Marche du vendredi 03 Aout 2012</name>
    <desc><![CDATA[Marche libre avec Francesco]]></desc>
  </metadata>
  <trk>
    <name><![CDATA[CHENOVE Marche du vendredi 03 Aout 2012_1]]></name>
    <trkseg>
      <trkpt lat="47.29253" lon="5.00602">
        <ele>249.925</ele>
        <time>2012-08-03T07:33:33Z</time>
      </trkpt>
      <trkpt lat="47.2926" lon="5.00588">
        <ele>248.358</ele>
        <time>2012-08-03T07:33:44Z</time>
      </trkpt>
      <trkpt lat="47.2927" lon="5.00578">
        <ele>246.253</ele>
        <time>2012-08-03T07:33:55Z</time>
      </trkpt>
      <trkpt lat="47.29267" lon="5.00562">
        <ele>258.77</ele>
        <time>2012-08-03T07:34:06Z</time>
      </trkpt>
      <trkpt lat="47.29268" lon="5.0055">
        <ele>265.285</ele>
        <time>2012-08-03T07:34:17Z</time>
      </trkpt>
      <trkpt lat="47.29282" lon="5.0054">
        <ele>266.33</ele>
        <time>2012-08-03T07:34:28Z</time>
      </trkpt>
      <trkpt lat="47.29293" lon="5.00532">
        <ele>266.465</ele>
        <time>2012-08-03T07:34:39Z</time>
      </trkpt>
      <trkpt lat="47.29303" lon="5.00522">
        <ele>271.431</ele>
        <time>2012-08-03T07:34:50Z</time>
      </trkpt>
      <trkpt lat="47.2932" lon="5.00505">
        <ele>274.53</ele>
        <time>2012-08-03T07:35:01Z</time>
      </trkpt>
      <trkpt lat="47.29327" lon="5.0049">
        <ele>275.116</ele>
        <time>2012-08-03T07:35:12Z</time>
      </trkpt>
      <trkpt lat="47.29315" lon="5.00467">
        <ele>275.971</ele>
        <time>2012-08-03T07:35:23Z</time>
      </trkpt>
      <trkpt lat="47.29308" lon="5.00437">
        <ele>274.509</ele>
        <time>2012-08-03T07:35:34Z</time>
      </trkpt>
      <trkpt lat="47.29308" lon="5.00422">
        <ele>270.758</ele>
        <time>2012-08-03T07:35:45Z</time>
      </trkpt>
      <trkpt lat="47.29305" lon="5.00408">
        <ele>274.068</ele>
        <time>2012-08-03T07:35:56Z</time>
      </trkpt>
      <trkpt lat="47.29313" lon="5.00408">
        <ele>272.469</ele>
        <time>2012-08-03T07:36:07Z</time>
      </trkpt>
      <trkpt lat="47.2932" lon="5.004">
        <ele>272.493</ele>
        <time>2012-08-03T07:36:18Z</time>
      </trkpt>
      <trkpt lat="47.29328" lon="5.00378">
        <ele>274.891</ele>
        <time>2012-08-03T07:36:29Z</time>
      </trkpt>
      <trkpt lat="47.29333" lon="5.00372">
        <ele>278.052</ele>
        <time>2012-08-03T07:36:40Z</time>
      </trkpt>
      <trkpt lat="47.2934" lon="5.00373">
        <ele>278.81</ele>
        <time>2012-08-03T07:36:51Z</time>
      </trkpt>
      <trkpt lat="47.29345" lon="5.00375">
        <ele>278.676</ele>
        <time>2012-08-03T07:37:02Z</time>
      </trkpt>
      <trkpt lat="47.29355" lon="5.00375">
        <ele>279.173</ele>
        <time>2012-08-03T07:37:13Z</time>
      </trkpt>
      <trkpt lat="47.29368" lon="5.00373">
        <ele>276.314</ele>
        <time>2012-08-03T07:37:24Z</time>
      </trkpt>
      <trkpt lat="47.29385" lon="5.0038">
        <ele>274.499</ele>
        <time>2012-08-03T07:37:35Z</time>
      </trkpt>
      <trkpt lat="47.29392" lon="5.00367">
        <ele>283.346</ele>
        <time>2012-08-03T07:37:46Z</time>
      </trkpt>
      <trkpt lat="47.29407" lon="5.00368">
        <ele>281.915</ele>
        <time>2012-08-03T07:37:57Z</time>
      </trkpt>
      <trkpt lat="47.29418" lon="5.0037">
        <ele>281.86</ele>
        <time>2012-08-03T07:38:08Z</time>
      </trkpt>
      <trkpt lat="47.29427" lon="5.00378">
        <ele>285.37</ele>
        <time>2012-08-03T07:38:19Z</time>
      </trkpt>
      <trkpt lat="47.29442" lon="5.00385">
        <ele>284.476</ele>
        <time>2012-08-03T07:38:30Z</time>
      </trkpt>
      <trkpt lat="47.29462" lon="5.00365">
        <ele>280.381</ele>
        <time>2012-08-03T07:38:41Z</time>
      </trkpt>
      <trkpt lat="47.29475" lon="5.00347">
        <ele>278.25</ele>
        <time>2012-08-03T07:38:52Z</time>
      </trkpt>
      <trkpt lat="47.29485" lon="5.00327">
        <ele>277.05</ele>
        <time>2012-08-03T07:39:03Z</time>
      </trkpt>
      <trkpt lat="47.29497" lon="5.00312">
        <ele>274.36</ele>
        <time>2012-08-03T07:39:14Z</time>
      </trkpt>
      <trkpt lat="47.29502" lon="5.00298">
        <ele>274.505</ele>
        <time>2012-08-03T07:39:25Z</time>
      </trkpt>
      <trkpt lat="47.29503" lon="5.00292">
        <ele>272.897</ele>
        <time>2012-08-03T07:39:36Z</time>
      </trkpt>
      <trkpt lat="47.29507" lon="5.0028">
        <ele>272.322</ele>
        <time>2012-08-03T07:39:47Z</time>
      </trkpt>
      <trkpt lat="47.29512" lon="5.00257">
        <ele>269.927</ele>
        <time>2012-08-03T07:39:58Z</time>
      </trkpt>
      <trkpt lat="47.29523" lon="5.00237">
        <ele>269.334</ele>
        <time>2012-08-03T07:40:09Z</time>
      </trkpt>
      <trkpt lat="47.29538" lon="5.00222">
        <ele>268.447</ele>
        <time>2012-08-03T07:40:20Z</time>
      </trkpt>
      <trkpt lat="47.29547" lon="5.0021">
        <ele>268.102</ele>
        <time>2012-08-03T07:40:31Z</time>
      </trkpt>
      <trkpt lat="47.29555" lon="5.00195">
        <ele>270.775</ele>
        <time>2012-08-03T07:40:42Z</time>
      </trkpt>
      <trkpt lat="47.29567" lon="5.00178">
        <ele>271.679</ele>
        <time>2012-08-03T07:40:53Z</time>
      </trkpt>
      <trkpt lat="47.29578" lon="5.00157">
        <ele>275.953</ele>
        <time>2012-08-03T07:41:04Z</time>
      </trkpt>
      <trkpt lat="47.29585" lon="5.00137">
        <ele>280.929</ele>
        <time>2012-08-03T07:41:15Z</time>
      </trkpt>
      <trkpt lat="47.29592" lon="5.00115">
        <ele>282.824</ele>
        <time>2012-08-03T07:41:26Z</time>
      </trkpt>
      <trkpt lat="47.29598" lon="5.00095">
        <ele>282.145</ele>
        <time>2012-08-03T07:41:37Z</time>
      </trkpt>
      <trkpt lat="47.29602" lon="5.00082">
        <ele>283.652</ele>
        <time>2012-08-03T07:41:48Z</time>
      </trkpt>
      <trkpt lat="47.29612" lon="5.00075">
        <ele>284.202</ele>
        <time>2012-08-03T07:41:59Z</time>
      </trkpt>
      <trkpt lat="47.29623" lon="5.00075">
        <ele>283.742</ele>
        <time>2012-08-03T07:42:10Z</time>
      </trkpt>
      <trkpt lat="47.29637" lon="5.00075">
        <ele>283.755</ele>
        <time>2012-08-03T07:42:21Z</time>
      </trkpt>
      <trkpt lat="47.29652" lon="5.00077">
        <ele>282.13</ele>
        <time>2012-08-03T07:42:32Z</time>
      </trkpt>
      <trkpt lat="47.29663" lon="5.0008">
        <ele>281.832</ele>
        <time>2012-08-03T07:42:43Z</time>
      </trkpt>
      <trkpt lat="47.29677" lon="5.00083">
        <ele>281.392</ele>
        <time>2012-08-03T07:42:54Z</time>
      </trkpt>
      <trkpt lat="47.2969" lon="5.0009">
        <ele>283.346</ele>
        <time>2012-08-03T07:43:05Z</time>
      </trkpt>
      <trkpt lat="47.29705" lon="5.00093">
        <ele>284.126</ele>
        <time>2012-08-03T07:43:16Z</time>
      </trkpt>
      <trkpt lat="47.29718" lon="5.00097">
        <ele>285.126</ele>
        <time>2012-08-03T07:43:27Z</time>
      </trkpt>
      <trkpt lat="47.29732" lon="5.00098">
        <ele>286.234</ele>
        <time>2012-08-03T07:43:38Z</time>
      </trkpt>
      <trkpt lat="47.29745" lon="5.00098">
        <ele>289.101</ele>
        <time>2012-08-03T07:43:49Z</time>
      </trkpt>
      <trkpt lat="47.29758" lon="5.00105">
        <ele>289.689</ele>
        <time>2012-08-03T07:44:00Z</time>
      </trkpt>
      <trkpt lat="47.29772" lon="5.0011">
        <ele>290.195</ele>
        <time>2012-08-03T07:44:11Z</time>
      </trkpt>
      <trkpt lat="47.29787" lon="5.00113">
        <ele>290.218</ele>
        <time>2012-08-03T07:44:22Z</time>
      </trkpt>
      <trkpt lat="47.29802" lon="5.00115">
        <ele>290.89</ele>
        <time>2012-08-03T07:44:33Z</time>
      </trkpt>
      <trkpt lat="47.29815" lon="5.00118">
        <ele>290.259</ele>
        <time>2012-08-03T07:44:44Z</time>
      </trkpt>
      <trkpt lat="47.2983" lon="5.00122">
        <ele>290.748</ele>
        <time>2012-08-03T07:44:55Z</time>
      </trkpt>
      <trkpt lat="47.29843" lon="5.00128">
        <ele>291.787</ele>
        <time>2012-08-03T07:45:06Z</time>
      </trkpt>
      <trkpt lat="47.29857" lon="5.00133">
        <ele>291.197</ele>
        <time>2012-08-03T07:45:17Z</time>
      </trkpt>
      <trkpt lat="47.2987" lon="5.00135">
        <ele>292.049</ele>
        <time>2012-08-03T07:45:28Z</time>
      </trkpt>
      <trkpt lat="47.29883" lon="5.00137">
        <ele>294.042</ele>
        <time>2012-08-03T07:45:39Z</time>
      </trkpt>
      <trkpt lat="47.29892" lon="5.00137">
        <ele>295.885</ele>
        <time>2012-08-03T07:45:50Z</time>
      </trkpt>
      <trkpt lat="47.29907" lon="5.00135">
        <ele>297.817</ele>
        <time>2012-08-03T07:46:01Z</time>
      </trkpt>
      <trkpt lat="47.29918" lon="5.00135">
        <ele>298.642</ele>
        <time>2012-08-03T07:46:12Z</time>
      </trkpt>
      <trkpt lat="47.2993" lon="5.00137">
        <ele>296.924</ele>
        <time>2012-08-03T07:46:23Z</time>
      </trkpt>
      <trkpt lat="47.29943" lon="5.00137">
        <ele>297.026</ele>
        <time>2012-08-03T07:46:34Z</time>
      </trkpt>
      <trkpt lat="47.29958" lon="5.00138">
        <ele>297.654</ele>
        <time>2012-08-03T07:46:45Z</time>
      </trkpt>
      <trkpt lat="47.29972" lon="5.00138">
        <ele>297.544</ele>
        <time>2012-08-03T07:46:56Z</time>
      </trkpt>
      <trkpt lat="47.29985" lon="5.00138">
        <ele>297.226</ele>
        <time>2012-08-03T07:47:07Z</time>
      </trkpt>
      <trkpt lat="47.3" lon="5.0014">
        <ele>296.759</ele>
        <time>2012-08-03T07:47:18Z</time>
      </trkpt>
      <trkpt lat="47.30003" lon="5.0014">
        <ele>296.881</ele>
        <time>2012-08-03T07:47:29Z</time>
      </trkpt>
      <trkpt lat="47.30017" lon="5.00143">
        <ele>297.793</ele>
        <time>2012-08-03T07:47:40Z</time>
      </trkpt>
      <trkpt lat="47.30027" lon="5.00147">
        <ele>299.026</ele>
        <time>2012-08-03T07:47:51Z</time>
      </trkpt>
      <trkpt lat="47.30035" lon="5.00153">
        <ele>301.316</ele>
        <time>2012-08-03T07:48:02Z</time>
      </trkpt>
      <trkpt lat="47.3004" lon="5.00157">
        <ele>301.978</ele>
        <time>2012-08-03T07:48:13Z</time>
      </trkpt>
      <trkpt lat="47.30048" lon="5.0016">
        <ele>301.333</ele>
        <time>2012-08-03T07:48:24Z</time>
      </trkpt>
      <trkpt lat="47.30057" lon="5.00168">
        <ele>302.703</ele>
        <time>2012-08-03T07:48:35Z</time>
      </trkpt>
      <trkpt lat="47.3007" lon="5.00183">
        <ele>303.039</ele>
        <time>2012-08-03T07:48:46Z</time>
      </trkpt>
      <trkpt lat="47.30083" lon="5.00198">
        <ele>304.055</ele>
        <time>2012-08-03T07:48:57Z</time>
      </trkpt>
      <trkpt lat="47.30095" lon="5.00212">
        <ele>306.358</ele>
        <time>2012-08-03T07:49:08Z</time>
      </trkpt>
      <trkpt lat="47.30105" lon="5.00225">
        <ele>308.097</ele>
        <time>2012-08-03T07:49:19Z</time>
      </trkpt>
      <trkpt lat="47.30117" lon="5.00238">
        <ele>309.537</ele>
        <time>2012-08-03T07:49:30Z</time>
      </trkpt>
      <trkpt lat="47.30128" lon="5.00252">
        <ele>311.586</ele>
        <time>2012-08-03T07:49:41Z</time>
      </trkpt>
      <trkpt lat="47.30137" lon="5.00255">
        <ele>312.277</ele>
        <time>2012-08-03T07:49:52Z</time>
      </trkpt>
      <trkpt lat="47.30147" lon="5.00258">
        <ele>311.905</ele>
        <time>2012-08-03T07:50:03Z</time>
      </trkpt>
      <trkpt lat="47.30157" lon="5.0026">
        <ele>308.87</ele>
        <time>2012-08-03T07:50:14Z</time>
      </trkpt>
      <trkpt lat="47.30167" lon="5.00272">
        <ele>308.609</ele>
        <time>2012-08-03T07:50:25Z</time>
      </trkpt>
      <trkpt lat="47.3018" lon="5.00278">
        <ele>310.027</ele>
        <time>2012-08-03T07:50:36Z</time>
      </trkpt>
      <trkpt lat="47.30193" lon="5.0028">
        <ele>311.065</ele>
        <time>2012-08-03T07:50:47Z</time>
      </trkpt>
      <trkpt lat="47.30205" lon="5.00282">
        <ele>312.037</ele>
        <time>2012-08-03T07:50:58Z</time>
      </trkpt>
      <trkpt lat="47.30218" lon="5.00283">
        <ele>312.542</ele>
        <time>2012-08-03T07:51:09Z</time>
      </trkpt>
      <trkpt lat="47.3023" lon="5.00285">
        <ele>311.518</ele>
        <time>2012-08-03T07:51:20Z</time>
      </trkpt>
      <trkpt lat="47.30242" lon="5.00287">
        <ele>311.43</ele>
        <time>2012-08-03T07:51:31Z</time>
      </trkpt>
      <trkpt lat="47.30257" lon="5.00285">
        <ele>312.619</ele>
        <time>2012-08-03T07:51:42Z</time>
      </trkpt>
      <trkpt lat="47.3027" lon="5.00288">
        <ele>312.457</ele>
        <time>2012-08-03T07:51:53Z</time>
      </trkpt>
      <trkpt lat="47.30282" lon="5.00292">
        <ele>313.168</ele>
        <time>2012-08-03T07:52:04Z</time>
      </trkpt>
      <trkpt lat="47.30295" lon="5.00288">
        <ele>312.768</ele>
        <time>2012-08-03T07:52:15Z</time>
      </trkpt>
      <trkpt lat="47.30305" lon="5.00288">
        <ele>313.124</ele>
        <time>2012-08-03T07:52:26Z</time>
      </trkpt>
      <trkpt lat="47.30315" lon="5.0029">
        <ele>312.758</ele>
        <time>2012-08-03T07:52:37Z</time>
      </trkpt>
      <trkpt lat="47.30325" lon="5.00288">
        <ele>314.195</ele>
        <time>2012-08-03T07:52:48Z</time>
      </trkpt>
      <trkpt lat="47.30337" lon="5.00282">
        <ele>317.06</ele>
        <time>2012-08-03T07:52:59Z</time>
      </trkpt>
      <trkpt lat="47.30347" lon="5.00288">
        <ele>317.211</ele>
        <time>2012-08-03T07:53:10Z</time>
      </trkpt>
      <trkpt lat="47.3036" lon="5.00285">
        <ele>320.77</ele>
        <time>2012-08-03T07:53:21Z</time>
      </trkpt>
      <trkpt lat="47.30377" lon="5.00287">
        <ele>328.009</ele>
        <time>2012-08-03T07:53:32Z</time>
      </trkpt>
      <trkpt lat="47.30392" lon="5.00278">
        <ele>329.565</ele>
        <time>2012-08-03T07:53:43Z</time>
      </trkpt>
      <trkpt lat="47.30403" lon="5.00278">
        <ele>331.759</ele>
        <time>2012-08-03T07:53:54Z</time>
      </trkpt>
      <trkpt lat="47.30422" lon="5.00267">
        <ele>329.724</ele>
        <time>2012-08-03T07:54:05Z</time>
      </trkpt>
      <trkpt lat="47.30435" lon="5.00253">
        <ele>326.698</ele>
        <time>2012-08-03T07:54:16Z</time>
      </trkpt>
      <trkpt lat="47.3045" lon="5.00243">
        <ele>325.201</ele>
        <time>2012-08-03T07:54:27Z</time>
      </trkpt>
      <trkpt lat="47.30463" lon="5.0024">
        <ele>326.585</ele>
        <time>2012-08-03T07:54:38Z</time>
      </trkpt>
      <trkpt lat="47.30478" lon="5.00237">
        <ele>326.462</ele>
        <time>2012-08-03T07:54:49Z</time>
      </trkpt>
      <trkpt lat="47.30492" lon="5.0023">
        <ele>324.04</ele>
        <time>2012-08-03T07:55:00Z</time>
      </trkpt>
      <trkpt lat="47.30505" lon="5.00227">
        <ele>324.355</ele>
        <time>2012-08-03T07:55:11Z</time>
      </trkpt>
      <trkpt lat="47.30522" lon="5.00222">
        <ele>323.215</ele>
        <time>2012-08-03T07:55:22Z</time>
      </trkpt>
      <trkpt lat="47.30523" lon="5.00222">
        <ele>322.82</ele>
        <time>2012-08-03T07:55:33Z</time>
      </trkpt>
      <trkpt lat="47.30523" lon="5.0022">
        <ele>322.687</ele>
        <time>2012-08-03T07:55:44Z</time>
      </trkpt>
      <trkpt lat="47.30523" lon="5.0022">
        <ele>322.687</ele>
        <time>2012-08-03T07:55:55Z</time>
      </trkpt>
      <trkpt lat="47.30523" lon="5.0022">
        <ele>322.687</ele>
        <time>2012-08-03T07:56:06Z</time>
      </trkpt>
      <trkpt lat="47.30523" lon="5.0022">
        <ele>322.687</ele>
        <time>2012-08-03T07:56:17Z</time>
      </trkpt>
      <trkpt lat="47.30523" lon="5.0022">
        <ele>322.687</ele>
        <time>2012-08-03T07:56:28Z</time>
      </trkpt>
      <trkpt lat="47.30525" lon="5.0022">
        <ele>322.619</ele>
        <time>2012-08-03T07:56:39Z</time>
      </trkpt>
      <trkpt lat="47.30538" lon="5.00218">
        <ele>322.601</ele>
        <time>2012-08-03T07:56:50Z</time>
      </trkpt>
      <trkpt lat="47.30552" lon="5.00217">
        <ele>321.413</ele>
        <time>2012-08-03T07:57:01Z</time>
      </trkpt>
      <trkpt lat="47.30565" lon="5.00215">
        <ele>321.568</ele>
        <time>2012-08-03T07:57:12Z</time>
      </trkpt>
      <trkpt lat="47.3058" lon="5.00212">
        <ele>320.397</ele>
        <time>2012-08-03T07:57:23Z</time>
      </trkpt>
      <trkpt lat="47.30595" lon="5.00205">
        <ele>319.179</ele>
        <time>2012-08-03T07:57:34Z</time>
      </trkpt>
      <trkpt lat="47.30612" lon="5.00203">
        <ele>317.116</ele>
        <time>2012-08-03T07:57:45Z</time>
      </trkpt>
      <trkpt lat="47.30625" lon="5.00207">
        <ele>315.905</ele>
        <time>2012-08-03T07:57:56Z</time>
      </trkpt>
      <trkpt lat="47.30638" lon="5.00208">
        <ele>315.469</ele>
        <time>2012-08-03T07:58:07Z</time>
      </trkpt>
      <trkpt lat="47.3065" lon="5.00208">
        <ele>314.934</ele>
        <time>2012-08-03T07:58:18Z</time>
      </trkpt>
      <trkpt lat="47.30665" lon="5.00213">
        <ele>309.996</ele>
        <time>2012-08-03T07:58:29Z</time>
      </trkpt>
      <trkpt lat="47.30677" lon="5.00215">
        <ele>309.699</ele>
        <time>2012-08-03T07:58:40Z</time>
      </trkpt>
      <trkpt lat="47.3069" lon="5.00218">
        <ele>307.153</ele>
        <time>2012-08-03T07:58:51Z</time>
      </trkpt>
      <trkpt lat="47.30708" lon="5.00223">
        <ele>305.955</ele>
        <time>2012-08-03T07:59:02Z</time>
      </trkpt>
      <trkpt lat="47.3072" lon="5.00228">
        <ele>304.735</ele>
        <time>2012-08-03T07:59:13Z</time>
      </trkpt>
      <trkpt lat="47.30737" lon="5.0023">
        <ele>303.278</ele>
        <time>2012-08-03T07:59:24Z</time>
      </trkpt>
      <trkpt lat="47.30752" lon="5.00228">
        <ele>303.128</ele>
        <time>2012-08-03T07:59:35Z</time>
      </trkpt>
      <trkpt lat="47.30765" lon="5.00227">
        <ele>301.577</ele>
        <time>2012-08-03T07:59:46Z</time>
      </trkpt>
      <trkpt lat="47.30775" lon="5.00228">
        <ele>299.963</ele>
        <time>2012-08-03T07:59:57Z</time>
      </trkpt>
      <trkpt lat="47.30788" lon="5.00223">
        <ele>298.256</ele>
        <time>2012-08-03T08:00:08Z</time>
      </trkpt>
      <trkpt lat="47.30802" lon="5.00218">
        <ele>296.647</ele>
        <time>2012-08-03T08:00:19Z</time>
      </trkpt>
      <trkpt lat="47.30818" lon="5.00218">
        <ele>297.655</ele>
        <time>2012-08-03T08:00:30Z</time>
      </trkpt>
      <trkpt lat="47.30832" lon="5.00215">
        <ele>297.874</ele>
        <time>2012-08-03T08:00:41Z</time>
      </trkpt>
      <trkpt lat="47.30845" lon="5.00207">
        <ele>296.231</ele>
        <time>2012-08-03T08:00:52Z</time>
      </trkpt>
      <trkpt lat="47.30858" lon="5.002">
        <ele>294.957</ele>
        <time>2012-08-03T08:01:03Z</time>
      </trkpt>
      <trkpt lat="47.30873" lon="5.00192">
        <ele>294.164</ele>
        <time>2012-08-03T08:01:14Z</time>
      </trkpt>
      <trkpt lat="47.30885" lon="5.00188">
        <ele>293.061</ele>
        <time>2012-08-03T08:01:25Z</time>
      </trkpt>
      <trkpt lat="47.30897" lon="5.0018">
        <ele>292.035</ele>
        <time>2012-08-03T08:01:36Z</time>
      </trkpt>
      <trkpt lat="47.30907" lon="5.00177">
        <ele>290.379</ele>
        <time>2012-08-03T08:01:47Z</time>
      </trkpt>
      <trkpt lat="47.30923" lon="5.00177">
        <ele>288.862</ele>
        <time>2012-08-03T08:01:58Z</time>
      </trkpt>
      <trkpt lat="47.3093" lon="5.00162">
        <ele>287.63</ele>
        <time>2012-08-03T08:02:09Z</time>
      </trkpt>
      <trkpt lat="47.30935" lon="5.00143">
        <ele>285.58</ele>
        <time>2012-08-03T08:02:20Z</time>
      </trkpt>
      <trkpt lat="47.30938" lon="5.00118">
        <ele>284.943</ele>
        <time>2012-08-03T08:02:31Z</time>
      </trkpt>
      <trkpt lat="47.30938" lon="5.00092">
        <ele>285.792</ele>
        <time>2012-08-03T08:02:42Z</time>
      </trkpt>
      <trkpt lat="47.30937" lon="5.0007">
        <ele>286.943</ele>
        <time>2012-08-03T08:02:53Z</time>
      </trkpt>
      <trkpt lat="47.30933" lon="5.00052">
        <ele>287.834</ele>
        <time>2012-08-03T08:03:04Z</time>
      </trkpt>
      <trkpt lat="47.30932" lon="5.00035">
        <ele>290.161</ele>
        <time>2012-08-03T08:03:15Z</time>
      </trkpt>
      <trkpt lat="47.30928" lon="5.00015">
        <ele>292.208</ele>
        <time>2012-08-03T08:03:26Z</time>
      </trkpt>
      <trkpt lat="47.30923" lon="4.99997">
        <ele>291.814</ele>
        <time>2012-08-03T08:03:37Z</time>
      </trkpt>
      <trkpt lat="47.3092" lon="4.9998">
        <ele>295.557</ele>
        <time>2012-08-03T08:03:48Z</time>
      </trkpt>
      <trkpt lat="47.30915" lon="4.99965">
        <ele>299.943</ele>
        <time>2012-08-03T08:03:59Z</time>
      </trkpt>
      <trkpt lat="47.30908" lon="4.99947">
        <ele>298.485</ele>
        <time>2012-08-03T08:04:10Z</time>
      </trkpt>
      <trkpt lat="47.30898" lon="4.99932">
        <ele>300.277</ele>
        <time>2012-08-03T08:04:21Z</time>
      </trkpt>
      <trkpt lat="47.30893" lon="4.99912">
        <ele>301.663</ele>
        <time>2012-08-03T08:04:32Z</time>
      </trkpt>
      <trkpt lat="47.30888" lon="4.99893">
        <ele>302.488</ele>
        <time>2012-08-03T08:04:43Z</time>
      </trkpt>
      <trkpt lat="47.30883" lon="4.99875">
        <ele>304.101</ele>
        <time>2012-08-03T08:04:54Z</time>
      </trkpt>
      <trkpt lat="47.30878" lon="4.99857">
        <ele>306.159</ele>
        <time>2012-08-03T08:05:05Z</time>
      </trkpt>
      <trkpt lat="47.30875" lon="4.99838">
        <ele>307.694</ele>
        <time>2012-08-03T08:05:16Z</time>
      </trkpt>
      <trkpt lat="47.30875" lon="4.99822">
        <ele>313.035</ele>
        <time>2012-08-03T08:05:27Z</time>
      </trkpt>
      <trkpt lat="47.3087" lon="4.99813">
        <ele>313.597</ele>
        <time>2012-08-03T08:05:38Z</time>
      </trkpt>
      <trkpt lat="47.30865" lon="4.99797">
        <ele>313.289</ele>
        <time>2012-08-03T08:05:49Z</time>
      </trkpt>
      <trkpt lat="47.30857" lon="4.99777">
        <ele>312.505</ele>
        <time>2012-08-03T08:06:00Z</time>
      </trkpt>
      <trkpt lat="47.30852" lon="4.99755">
        <ele>312.466</ele>
        <time>2012-08-03T08:06:11Z</time>
      </trkpt>
      <trkpt lat="47.30843" lon="4.99737">
        <ele>314.754</ele>
        <time>2012-08-03T08:06:22Z</time>
      </trkpt>
      <trkpt lat="47.30833" lon="4.99713">
        <ele>314.48</ele>
        <time>2012-08-03T08:06:33Z</time>
      </trkpt>
      <trkpt lat="47.30827" lon="4.99702">
        <ele>313.958</ele>
        <time>2012-08-03T08:06:44Z</time>
      </trkpt>
      <trkpt lat="47.30823" lon="4.99683">
        <ele>315.1</ele>
        <time>2012-08-03T08:06:55Z</time>
      </trkpt>
      <trkpt lat="47.30817" lon="4.99667">
        <ele>317.717</ele>
        <time>2012-08-03T08:07:06Z</time>
      </trkpt>
      <trkpt lat="47.30812" lon="4.99645">
        <ele>317.465</ele>
        <time>2012-08-03T08:07:17Z</time>
      </trkpt>
      <trkpt lat="47.30805" lon="4.99623">
        <ele>318.08</ele>
        <time>2012-08-03T08:07:28Z</time>
      </trkpt>
      <trkpt lat="47.30803" lon="4.99605">
        <ele>320.31</ele>
        <time>2012-08-03T08:07:39Z</time>
      </trkpt>
      <trkpt lat="47.308" lon="4.99588">
        <ele>322.345</ele>
        <time>2012-08-03T08:07:50Z</time>
      </trkpt>
      <trkpt lat="47.30798" lon="4.99568">
        <ele>325.942</ele>
        <time>2012-08-03T08:08:01Z</time>
      </trkpt>
      <trkpt lat="47.3079" lon="4.99552">
        <ele>328.629</ele>
        <time>2012-08-03T08:08:12Z</time>
      </trkpt>
      <trkpt lat="47.30782" lon="4.99535">
        <ele>328.607</ele>
        <time>2012-08-03T08:08:23Z</time>
      </trkpt>
      <trkpt lat="47.30777" lon="4.99515">
        <ele>328.105</ele>
        <time>2012-08-03T08:08:34Z</time>
      </trkpt>
      <trkpt lat="47.3077" lon="4.99498">
        <ele>326.229</ele>
        <time>2012-08-03T08:08:45Z</time>
      </trkpt>
      <trkpt lat="47.30767" lon="4.99478">
        <ele>325.744</ele>
        <time>2012-08-03T08:08:56Z</time>
      </trkpt>
      <trkpt lat="47.30762" lon="4.99465">
        <ele>327.069</ele>
        <time>2012-08-03T08:09:07Z</time>
      </trkpt>
      <trkpt lat="47.30755" lon="4.99448">
        <ele>327.62</ele>
        <time>2012-08-03T08:09:18Z</time>
      </trkpt>
      <trkpt lat="47.3075" lon="4.99427">
        <ele>330.297</ele>
        <time>2012-08-03T08:09:29Z</time>
      </trkpt>
      <trkpt lat="47.30745" lon="4.99407">
        <ele>332.235</ele>
        <time>2012-08-03T08:09:40Z</time>
      </trkpt>
      <trkpt lat="47.3074" lon="4.99388">
        <ele>334.54</ele>
        <time>2012-08-03T08:09:51Z</time>
      </trkpt>
      <trkpt lat="47.30733" lon="4.99372">
        <ele>334.507</ele>
        <time>2012-08-03T08:10:02Z</time>
      </trkpt>
      <trkpt lat="47.30723" lon="4.99352">
        <ele>333.11</ele>
        <time>2012-08-03T08:10:13Z</time>
      </trkpt>
      <trkpt lat="47.30718" lon="4.9933">
        <ele>335.552</ele>
        <time>2012-08-03T08:10:24Z</time>
      </trkpt>
      <trkpt lat="47.30713" lon="4.99318">
        <ele>336.41</ele>
        <time>2012-08-03T08:10:35Z</time>
      </trkpt>
      <trkpt lat="47.30702" lon="4.993">
        <ele>335.998</ele>
        <time>2012-08-03T08:10:46Z</time>
      </trkpt>
      <trkpt lat="47.30695" lon="4.99277">
        <ele>335.994</ele>
        <time>2012-08-03T08:10:57Z</time>
      </trkpt>
      <trkpt lat="47.30692" lon="4.9926">
        <ele>337.73</ele>
        <time>2012-08-03T08:11:08Z</time>
      </trkpt>
      <trkpt lat="47.30688" lon="4.99248">
        <ele>338.394</ele>
        <time>2012-08-03T08:11:19Z</time>
      </trkpt>
      <trkpt lat="47.30683" lon="4.99235">
        <ele>335.471</ele>
        <time>2012-08-03T08:11:30Z</time>
      </trkpt>
      <trkpt lat="47.30675" lon="4.99223">
        <ele>339.246</ele>
        <time>2012-08-03T08:11:41Z</time>
      </trkpt>
      <trkpt lat="47.30667" lon="4.99205">
        <ele>339.261</ele>
        <time>2012-08-03T08:11:52Z</time>
      </trkpt>
      <trkpt lat="47.30658" lon="4.99185">
        <ele>340.358</ele>
        <time>2012-08-03T08:12:03Z</time>
      </trkpt>
      <trkpt lat="47.30648" lon="4.9917">
        <ele>341.937</ele>
        <time>2012-08-03T08:12:14Z</time>
      </trkpt>
      <trkpt lat="47.30643" lon="4.99153">
        <ele>342.018</ele>
        <time>2012-08-03T08:12:25Z</time>
      </trkpt>
      <trkpt lat="47.30635" lon="4.9913">
        <ele>340.952</ele>
        <time>2012-08-03T08:12:36Z</time>
      </trkpt>
      <trkpt lat="47.30625" lon="4.99113">
        <ele>340.893</ele>
        <time>2012-08-03T08:12:47Z</time>
      </trkpt>
      <trkpt lat="47.3062" lon="4.99093">
        <ele>342.373</ele>
        <time>2012-08-03T08:12:58Z</time>
      </trkpt>
      <trkpt lat="47.30608" lon="4.9907">
        <ele>343.233</ele>
        <time>2012-08-03T08:13:09Z</time>
      </trkpt>
      <trkpt lat="47.30598" lon="4.9905">
        <ele>342.819</ele>
        <time>2012-08-03T08:13:20Z</time>
      </trkpt>
      <trkpt lat="47.30592" lon="4.99032">
        <ele>342.058</ele>
        <time>2012-08-03T08:13:31Z</time>
      </trkpt>
      <trkpt lat="47.30585" lon="4.99015">
        <ele>342.993</ele>
        <time>2012-08-03T08:13:42Z</time>
      </trkpt>
      <trkpt lat="47.3058" lon="4.98988">
        <ele>338.437</ele>
        <time>2012-08-03T08:13:53Z</time>
      </trkpt>
      <trkpt lat="47.30578" lon="4.98968">
        <ele>337.954</ele>
        <time>2012-08-03T08:14:04Z</time>
      </trkpt>
      <trkpt lat="47.30578" lon="4.9895">
        <ele>341.863</ele>
        <time>2012-08-03T08:14:15Z</time>
      </trkpt>
      <trkpt lat="47.30578" lon="4.98932">
        <ele>342.962</ele>
        <time>2012-08-03T08:14:26Z</time>
      </trkpt>
      <trkpt lat="47.30577" lon="4.98913">
        <ele>344.854</ele>
        <time>2012-08-03T08:14:37Z</time>
      </trkpt>
      <trkpt lat="47.30572" lon="4.98895">
        <ele>346.291</ele>
        <time>2012-08-03T08:14:48Z</time>
      </trkpt>
      <trkpt lat="47.30565" lon="4.98875">
        <ele>346.49</ele>
        <time>2012-08-03T08:14:59Z</time>
      </trkpt>
      <trkpt lat="47.30563" lon="4.98855">
        <ele>346.46</ele>
        <time>2012-08-03T08:15:10Z</time>
      </trkpt>
      <trkpt lat="47.30562" lon="4.98838">
        <ele>348.456</ele>
        <time>2012-08-03T08:15:21Z</time>
      </trkpt>
      <trkpt lat="47.30558" lon="4.98818">
        <ele>348.359</ele>
        <time>2012-08-03T08:15:32Z</time>
      </trkpt>
      <trkpt lat="47.30553" lon="4.98807">
        <ele>349.741</ele>
        <time>2012-08-03T08:15:43Z</time>
      </trkpt>
      <trkpt lat="47.30553" lon="4.98792">
        <ele>351.686</ele>
        <time>2012-08-03T08:15:54Z</time>
      </trkpt>
      <trkpt lat="47.30552" lon="4.98768">
        <ele>351.686</ele>
        <time>2012-08-03T08:16:05Z</time>
      </trkpt>
      <trkpt lat="47.3055" lon="4.9875">
        <ele>352.602</ele>
        <time>2012-08-03T08:16:16Z</time>
      </trkpt>
      <trkpt lat="47.30552" lon="4.98727">
        <ele>352.586</ele>
        <time>2012-08-03T08:16:27Z</time>
      </trkpt>
      <trkpt lat="47.30553" lon="4.9871">
        <ele>352.954</ele>
        <time>2012-08-03T08:16:38Z</time>
      </trkpt>
      <trkpt lat="47.30553" lon="4.98697">
        <ele>352.574</ele>
        <time>2012-08-03T08:16:49Z</time>
      </trkpt>
      <trkpt lat="47.30553" lon="4.98682">
        <ele>352.282</ele>
        <time>2012-08-03T08:17:00Z</time>
      </trkpt>
      <trkpt lat="47.30555" lon="4.98662">
        <ele>352.49</ele>
        <time>2012-08-03T08:17:11Z</time>
      </trkpt>
      <trkpt lat="47.30553" lon="4.98648">
        <ele>352.2</ele>
        <time>2012-08-03T08:17:22Z</time>
      </trkpt>
      <trkpt lat="47.30558" lon="4.98637">
        <ele>351.78</ele>
        <time>2012-08-03T08:17:33Z</time>
      </trkpt>
      <trkpt lat="47.30562" lon="4.98628">
        <ele>350.893</ele>
        <time>2012-08-03T08:17:44Z</time>
      </trkpt>
      <trkpt lat="47.30568" lon="4.98618">
        <ele>351.102</ele>
        <time>2012-08-03T08:17:55Z</time>
      </trkpt>
      <trkpt lat="47.30578" lon="4.98607">
        <ele>352.397</ele>
        <time>2012-08-03T08:18:06Z</time>
      </trkpt>
      <trkpt lat="47.30587" lon="4.98595">
        <ele>352.102</ele>
        <time>2012-08-03T08:18:17Z</time>
      </trkpt>
      <trkpt lat="47.30597" lon="4.98577">
        <ele>351.783</ele>
        <time>2012-08-03T08:18:28Z</time>
      </trkpt>
      <trkpt lat="47.30607" lon="4.9856">
        <ele>352.791</ele>
        <time>2012-08-03T08:18:39Z</time>
      </trkpt>
      <trkpt lat="47.30612" lon="4.98543">
        <ele>353.571</ele>
        <time>2012-08-03T08:18:50Z</time>
      </trkpt>
      <trkpt lat="47.30615" lon="4.98533">
        <ele>354.039</ele>
        <time>2012-08-03T08:19:01Z</time>
      </trkpt>
      <trkpt lat="47.3062" lon="4.98518">
        <ele>353.505</ele>
        <time>2012-08-03T08:19:12Z</time>
      </trkpt>
      <trkpt lat="47.30625" lon="4.985">
        <ele>354.994</ele>
        <time>2012-08-03T08:19:23Z</time>
      </trkpt>
      <trkpt lat="47.30628" lon="4.9849">
        <ele>355.949</ele>
        <time>2012-08-03T08:19:34Z</time>
      </trkpt>
      <trkpt lat="47.30632" lon="4.9847">
        <ele>358.008</ele>
        <time>2012-08-03T08:19:45Z</time>
      </trkpt>
      <trkpt lat="47.30632" lon="4.98453">
        <ele>359.342</ele>
        <time>2012-08-03T08:19:56Z</time>
      </trkpt>
      <trkpt lat="47.30633" lon="4.98442">
        <ele>359.25</ele>
        <time>2012-08-03T08:20:07Z</time>
      </trkpt>
      <trkpt lat="47.30633" lon="4.98427">
        <ele>361.568</ele>
        <time>2012-08-03T08:20:18Z</time>
      </trkpt>
      <trkpt lat="47.30632" lon="4.984">
        <ele>362.952</ele>
        <time>2012-08-03T08:20:29Z</time>
      </trkpt>
      <trkpt lat="47.3063" lon="4.98375">
        <ele>366.087</ele>
        <time>2012-08-03T08:20:40Z</time>
      </trkpt>
      <trkpt lat="47.30628" lon="4.98357">
        <ele>368.191</ele>
        <time>2012-08-03T08:20:51Z</time>
      </trkpt>
      <trkpt lat="47.30627" lon="4.9834">
        <ele>369.339</ele>
        <time>2012-08-03T08:21:02Z</time>
      </trkpt>
      <trkpt lat="47.3063" lon="4.98332">
        <ele>367.199</ele>
        <time>2012-08-03T08:21:13Z</time>
      </trkpt>
      <trkpt lat="47.3063" lon="4.98332">
        <ele>366.846</ele>
        <time>2012-08-03T08:21:24Z</time>
      </trkpt>
      <trkpt lat="47.3063" lon="4.98332">
        <ele>366.784</ele>
        <time>2012-08-03T08:21:35Z</time>
      </trkpt>
      <trkpt lat="47.30628" lon="4.98335">
        <ele>366.856</ele>
        <time>2012-08-03T08:21:46Z</time>
      </trkpt>
      <trkpt lat="47.30628" lon="4.98332">
        <ele>366.659</ele>
        <time>2012-08-03T08:21:57Z</time>
      </trkpt>
      <trkpt lat="47.30628" lon="4.98332">
        <ele>366.659</ele>
        <time>2012-08-03T08:22:08Z</time>
      </trkpt>
      <trkpt lat="47.30628" lon="4.98333">
        <ele>366.709</ele>
        <time>2012-08-03T08:22:19Z</time>
      </trkpt>
      <trkpt lat="47.30628" lon="4.98332">
        <ele>366.978</ele>
        <time>2012-08-03T08:22:30Z</time>
      </trkpt>
      <trkpt lat="47.3063" lon="4.98322">
        <ele>368.242</ele>
        <time>2012-08-03T08:22:41Z</time>
      </trkpt>
      <trkpt lat="47.30628" lon="4.98305">
        <ele>366.68</ele>
        <time>2012-08-03T08:22:52Z</time>
      </trkpt>
      <trkpt lat="47.30622" lon="4.98287">
        <ele>365.51</ele>
        <time>2012-08-03T08:23:03Z</time>
      </trkpt>
      <trkpt lat="47.30617" lon="4.98267">
        <ele>364.868</ele>
        <time>2012-08-03T08:23:14Z</time>
      </trkpt>
      <trkpt lat="47.3062" lon="4.98248">
        <ele>365.662</ele>
        <time>2012-08-03T08:23:25Z</time>
      </trkpt>
      <trkpt lat="47.30628" lon="4.98233">
        <ele>366.26</ele>
        <time>2012-08-03T08:23:36Z</time>
      </trkpt>
      <trkpt lat="47.30635" lon="4.9822">
        <ele>368.463</ele>
        <time>2012-08-03T08:23:47Z</time>
      </trkpt>
      <trkpt lat="47.30645" lon="4.98205">
        <ele>369.311</ele>
        <time>2012-08-03T08:23:58Z</time>
      </trkpt>
      <trkpt lat="47.30653" lon="4.98188">
        <ele>370.062</ele>
        <time>2012-08-03T08:24:09Z</time>
      </trkpt>
      <trkpt lat="47.30662" lon="4.98172">
        <ele>369.738</ele>
        <time>2012-08-03T08:24:20Z</time>
      </trkpt>
      <trkpt lat="47.3067" lon="4.98155">
        <ele>369.984</ele>
        <time>2012-08-03T08:24:31Z</time>
      </trkpt>
      <trkpt lat="47.30678" lon="4.9814">
        <ele>369.764</ele>
        <time>2012-08-03T08:24:42Z</time>
      </trkpt>
      <trkpt lat="47.30687" lon="4.98123">
        <ele>369.859</ele>
        <time>2012-08-03T08:24:53Z</time>
      </trkpt>
      <trkpt lat="47.30697" lon="4.98107">
        <ele>370.81</ele>
        <time>2012-08-03T08:25:04Z</time>
      </trkpt>
      <trkpt lat="47.30707" lon="4.9809">
        <ele>371.236</ele>
        <time>2012-08-03T08:25:15Z</time>
      </trkpt>
      <trkpt lat="47.30717" lon="4.98075">
        <ele>370.817</ele>
        <time>2012-08-03T08:25:26Z</time>
      </trkpt>
      <trkpt lat="47.30725" lon="4.98058">
        <ele>371.348</ele>
        <time>2012-08-03T08:25:37Z</time>
      </trkpt>
      <trkpt lat="47.30735" lon="4.98043">
        <ele>372.15</ele>
        <time>2012-08-03T08:25:48Z</time>
      </trkpt>
      <trkpt lat="47.30743" lon="4.98028">
        <ele>372.854</ele>
        <time>2012-08-03T08:25:59Z</time>
      </trkpt>
      <trkpt lat="47.30753" lon="4.9801">
        <ele>372.149</ele>
        <time>2012-08-03T08:26:10Z</time>
      </trkpt>
      <trkpt lat="47.30762" lon="4.97993">
        <ele>373.386</ele>
        <time>2012-08-03T08:26:21Z</time>
      </trkpt>
      <trkpt lat="47.30772" lon="4.97977">
        <ele>373.412</ele>
        <time>2012-08-03T08:26:32Z</time>
      </trkpt>
      <trkpt lat="47.30782" lon="4.9796">
        <ele>372.615</ele>
        <time>2012-08-03T08:26:43Z</time>
      </trkpt>
      <trkpt lat="47.30793" lon="4.97943">
        <ele>372.223</ele>
        <time>2012-08-03T08:26:54Z</time>
      </trkpt>
      <trkpt lat="47.30802" lon="4.97928">
        <ele>372.288</ele>
        <time>2012-08-03T08:27:05Z</time>
      </trkpt>
      <trkpt lat="47.30808" lon="4.9792">
        <ele>372.974</ele>
        <time>2012-08-03T08:27:16Z</time>
      </trkpt>
      <trkpt lat="47.3081" lon="4.9792">
        <ele>372.927</ele>
        <time>2012-08-03T08:27:27Z</time>
      </trkpt>
      <trkpt lat="47.3081" lon="4.9792">
        <ele>373.08</ele>
        <time>2012-08-03T08:27:38Z</time>
      </trkpt>
      <trkpt lat="47.308" lon="4.97907">
        <ele>372.052</ele>
        <time>2012-08-03T08:27:49Z</time>
      </trkpt>
      <trkpt lat="47.30792" lon="4.97893">
        <ele>370.318</ele>
        <time>2012-08-03T08:28:00Z</time>
      </trkpt>
      <trkpt lat="47.30788" lon="4.97888">
        <ele>370.511</ele>
        <time>2012-08-03T08:28:11Z</time>
      </trkpt>
      <trkpt lat="47.30788" lon="4.97888">
        <ele>370.394</ele>
        <time>2012-08-03T08:28:22Z</time>
      </trkpt>
      <trkpt lat="47.3079" lon="4.97888">
        <ele>370.282</ele>
        <time>2012-08-03T08:28:33Z</time>
      </trkpt>
      <trkpt lat="47.30788" lon="4.97887">
        <ele>370.082</ele>
        <time>2012-08-03T08:28:44Z</time>
      </trkpt>
      <trkpt lat="47.30788" lon="4.97888">
        <ele>370.118</ele>
        <time>2012-08-03T08:28:55Z</time>
      </trkpt>
      <trkpt lat="47.30788" lon="4.97887">
        <ele>370.085</ele>
        <time>2012-08-03T08:29:06Z</time>
      </trkpt>
      <trkpt lat="47.30788" lon="4.97887">
        <ele>369.31</ele>
        <time>2012-08-03T08:29:17Z</time>
      </trkpt>
      <trkpt lat="47.30788" lon="4.97887">
        <ele>369.31</ele>
        <time>2012-08-03T08:29:28Z</time>
      </trkpt>
      <trkpt lat="47.30788" lon="4.97887">
        <ele>369.31</ele>
        <time>2012-08-03T08:29:39Z</time>
      </trkpt>
      <trkpt lat="47.30788" lon="4.97887">
        <ele>369.31</ele>
        <time>2012-08-03T08:29:50Z</time>
      </trkpt>
      <trkpt lat="47.30788" lon="4.97887">
        <ele>369.31</ele>
        <time>2012-08-03T08:30:01Z</time>
      </trkpt>
      <trkpt lat="47.30788" lon="4.97887">
        <ele>369.31</ele>
        <time>2012-08-03T08:30:12Z</time>
      </trkpt>
      <trkpt lat="47.30788" lon="4.97883">
        <ele>369.801</ele>
        <time>2012-08-03T08:30:23Z</time>
      </trkpt>
      <trkpt lat="47.30788" lon="4.97883">
        <ele>369.838</ele>
        <time>2012-08-03T08:30:34Z</time>
      </trkpt>
      <trkpt lat="47.30782" lon="4.97875">
        <ele>370.656</ele>
        <time>2012-08-03T08:30:45Z</time>
      </trkpt>
      <trkpt lat="47.30775" lon="4.97868">
        <ele>370.145</ele>
        <time>2012-08-03T08:30:56Z</time>
      </trkpt>
      <trkpt lat="47.30768" lon="4.97858">
        <ele>370.408</ele>
        <time>2012-08-03T08:31:07Z</time>
      </trkpt>
      <trkpt lat="47.30758" lon="4.97843">
        <ele>369.567</ele>
        <time>2012-08-03T08:31:18Z</time>
      </trkpt>
      <trkpt lat="47.30748" lon="4.97825">
        <ele>371.013</ele>
        <time>2012-08-03T08:31:29Z</time>
      </trkpt>
      <trkpt lat="47.30743" lon="4.97807">
        <ele>371.217</ele>
        <time>2012-08-03T08:31:40Z</time>
      </trkpt>
      <trkpt lat="47.3074" lon="4.97787">
        <ele>372.042</ele>
        <time>2012-08-03T08:31:51Z</time>
      </trkpt>
      <trkpt lat="47.30742" lon="4.97767">
        <ele>371.581</ele>
        <time>2012-08-03T08:32:02Z</time>
      </trkpt>
      <trkpt lat="47.30745" lon="4.97748">
        <ele>372.753</ele>
        <time>2012-08-03T08:32:13Z</time>
      </trkpt>
      <trkpt lat="47.3075" lon="4.97728">
        <ele>372.522</ele>
        <time>2012-08-03T08:32:24Z</time>
      </trkpt>
      <trkpt lat="47.30755" lon="4.9771">
        <ele>372.822</ele>
        <time>2012-08-03T08:32:35Z</time>
      </trkpt>
      <trkpt lat="47.3076" lon="4.97692">
        <ele>373.137</ele>
        <time>2012-08-03T08:32:46Z</time>
      </trkpt>
      <trkpt lat="47.30767" lon="4.9767">
        <ele>372.051</ele>
        <time>2012-08-03T08:32:57Z</time>
      </trkpt>
      <trkpt lat="47.30772" lon="4.9765">
        <ele>372.269</ele>
        <time>2012-08-03T08:33:08Z</time>
      </trkpt>
      <trkpt lat="47.30777" lon="4.9763">
        <ele>372.037</ele>
        <time>2012-08-03T08:33:19Z</time>
      </trkpt>
      <trkpt lat="47.30782" lon="4.9761">
        <ele>371.831</ele>
        <time>2012-08-03T08:33:30Z</time>
      </trkpt>
      <trkpt lat="47.30787" lon="4.97588">
        <ele>371.353</ele>
        <time>2012-08-03T08:33:41Z</time>
      </trkpt>
      <trkpt lat="47.30792" lon="4.97568">
        <ele>370.739</ele>
        <time>2012-08-03T08:33:52Z</time>
      </trkpt>
      <trkpt lat="47.30798" lon="4.97547">
        <ele>369.926</ele>
        <time>2012-08-03T08:34:03Z</time>
      </trkpt>
      <trkpt lat="47.30802" lon="4.97527">
        <ele>368.363</ele>
        <time>2012-08-03T08:34:14Z</time>
      </trkpt>
      <trkpt lat="47.30807" lon="4.97505">
        <ele>366.599</ele>
        <time>2012-08-03T08:34:25Z</time>
      </trkpt>
      <trkpt lat="47.30813" lon="4.97485">
        <ele>364.915</ele>
        <time>2012-08-03T08:34:36Z</time>
      </trkpt>
      <trkpt lat="47.30818" lon="4.97467">
        <ele>364.511</ele>
        <time>2012-08-03T08:34:47Z</time>
      </trkpt>
      <trkpt lat="47.30822" lon="4.9745">
        <ele>363.764</ele>
        <time>2012-08-03T08:34:58Z</time>
      </trkpt>
      <trkpt lat="47.3083" lon="4.97435">
        <ele>362.3</ele>
        <time>2012-08-03T08:35:09Z</time>
      </trkpt>
      <trkpt lat="47.3084" lon="4.9742">
        <ele>362.432</ele>
        <time>2012-08-03T08:35:20Z</time>
      </trkpt>
      <trkpt lat="47.30845" lon="4.97405">
        <ele>362.621</ele>
        <time>2012-08-03T08:35:31Z</time>
      </trkpt>
      <trkpt lat="47.30852" lon="4.9739">
        <ele>363.016</ele>
        <time>2012-08-03T08:35:42Z</time>
      </trkpt>
      <trkpt lat="47.30858" lon="4.9737">
        <ele>362.677</ele>
        <time>2012-08-03T08:35:53Z</time>
      </trkpt>
      <trkpt lat="47.30867" lon="4.97348">
        <ele>362.566</ele>
        <time>2012-08-03T08:36:04Z</time>
      </trkpt>
      <trkpt lat="47.30863" lon="4.9733">
        <ele>362.708</ele>
        <time>2012-08-03T08:36:15Z</time>
      </trkpt>
      <trkpt lat="47.30868" lon="4.97312">
        <ele>361.05</ele>
        <time>2012-08-03T08:36:26Z</time>
      </trkpt>
      <trkpt lat="47.30868" lon="4.97285">
        <ele>361.313</ele>
        <time>2012-08-03T08:36:37Z</time>
      </trkpt>
      <trkpt lat="47.3087" lon="4.97265">
        <ele>361.641</ele>
        <time>2012-08-03T08:36:48Z</time>
      </trkpt>
      <trkpt lat="47.30875" lon="4.97238">
        <ele>359.791</ele>
        <time>2012-08-03T08:36:59Z</time>
      </trkpt>
      <trkpt lat="47.30877" lon="4.97222">
        <ele>359.838</ele>
        <time>2012-08-03T08:37:10Z</time>
      </trkpt>
      <trkpt lat="47.30878" lon="4.97207">
        <ele>358.908</ele>
        <time>2012-08-03T08:37:21Z</time>
      </trkpt>
      <trkpt lat="47.30887" lon="4.9719">
        <ele>357.217</ele>
        <time>2012-08-03T08:37:32Z</time>
      </trkpt>
      <trkpt lat="47.30892" lon="4.97172">
        <ele>355.725</ele>
        <time>2012-08-03T08:37:43Z</time>
      </trkpt>
      <trkpt lat="47.3089" lon="4.97148">
        <ele>356.419</ele>
        <time>2012-08-03T08:37:54Z</time>
      </trkpt>
      <trkpt lat="47.30892" lon="4.9712">
        <ele>357.785</ele>
        <time>2012-08-03T08:38:05Z</time>
      </trkpt>
      <trkpt lat="47.3089" lon="4.97103">
        <ele>362.534</ele>
        <time>2012-08-03T08:38:16Z</time>
      </trkpt>
      <trkpt lat="47.30892" lon="4.97095">
        <ele>366.895</ele>
        <time>2012-08-03T08:38:27Z</time>
      </trkpt>
      <trkpt lat="47.30898" lon="4.9709">
        <ele>369.749</ele>
        <time>2012-08-03T08:38:38Z</time>
      </trkpt>
      <trkpt lat="47.30903" lon="4.97073">
        <ele>371.579</ele>
        <time>2012-08-03T08:38:49Z</time>
      </trkpt>
      <trkpt lat="47.30908" lon="4.97068">
        <ele>370.665</ele>
        <time>2012-08-03T08:39:00Z</time>
      </trkpt>
      <trkpt lat="47.3092" lon="4.97053">
        <ele>368.317</ele>
        <time>2012-08-03T08:39:11Z</time>
      </trkpt>
      <trkpt lat="47.30933" lon="4.97035">
        <ele>366.774</ele>
        <time>2012-08-03T08:39:22Z</time>
      </trkpt>
      <trkpt lat="47.30947" lon="4.97025">
        <ele>365.911</ele>
        <time>2012-08-03T08:39:33Z</time>
      </trkpt>
      <trkpt lat="47.3096" lon="4.97017">
        <ele>366.497</ele>
        <time>2012-08-03T08:39:44Z</time>
      </trkpt>
      <trkpt lat="47.30972" lon="4.97002">
        <ele>367.255</ele>
        <time>2012-08-03T08:39:55Z</time>
      </trkpt>
      <trkpt lat="47.3098" lon="4.96988">
        <ele>368.373</ele>
        <time>2012-08-03T08:40:06Z</time>
      </trkpt>
      <trkpt lat="47.30988" lon="4.96972">
        <ele>369.074</ele>
        <time>2012-08-03T08:40:17Z</time>
      </trkpt>
      <trkpt lat="47.31003" lon="4.96967">
        <ele>369.443</ele>
        <time>2012-08-03T08:40:28Z</time>
      </trkpt>
      <trkpt lat="47.31005" lon="4.96943">
        <ele>370.171</ele>
        <time>2012-08-03T08:40:39Z</time>
      </trkpt>
      <trkpt lat="47.31005" lon="4.9693">
        <ele>369.541</ele>
        <time>2012-08-03T08:40:50Z</time>
      </trkpt>
      <trkpt lat="47.31005" lon="4.96922">
        <ele>370.337</ele>
        <time>2012-08-03T08:41:01Z</time>
      </trkpt>
      <trkpt lat="47.31003" lon="4.96912">
        <ele>370.864</ele>
        <time>2012-08-03T08:41:12Z</time>
      </trkpt>
      <trkpt lat="47.31002" lon="4.96908">
        <ele>370.852</ele>
        <time>2012-08-03T08:41:23Z</time>
      </trkpt>
      <trkpt lat="47.31002" lon="4.96905">
        <ele>370.587</ele>
        <time>2012-08-03T08:41:34Z</time>
      </trkpt>
      <trkpt lat="47.31" lon="4.96902">
        <ele>370.329</ele>
        <time>2012-08-03T08:41:45Z</time>
      </trkpt>
      <trkpt lat="47.30998" lon="4.96898">
        <ele>371.466</ele>
        <time>2012-08-03T08:41:56Z</time>
      </trkpt>
      <trkpt lat="47.30998" lon="4.96893">
        <ele>372.683</ele>
        <time>2012-08-03T08:42:07Z</time>
      </trkpt>
      <trkpt lat="47.30997" lon="4.96888">
        <ele>373.476</ele>
        <time>2012-08-03T08:42:18Z</time>
      </trkpt>
      <trkpt lat="47.30995" lon="4.96883">
        <ele>374.532</ele>
        <time>2012-08-03T08:42:29Z</time>
      </trkpt>
      <trkpt lat="47.30993" lon="4.96882">
        <ele>374.682</ele>
        <time>2012-08-03T08:42:40Z</time>
      </trkpt>
      <trkpt lat="47.30988" lon="4.96877">
        <ele>375.558</ele>
        <time>2012-08-03T08:42:51Z</time>
      </trkpt>
      <trkpt lat="47.30985" lon="4.96875">
        <ele>375.851</ele>
        <time>2012-08-03T08:43:02Z</time>
      </trkpt>
      <trkpt lat="47.30985" lon="4.96873">
        <ele>376.654</ele>
        <time>2012-08-03T08:43:13Z</time>
      </trkpt>
      <trkpt lat="47.30985" lon="4.96873">
        <ele>376.633</ele>
        <time>2012-08-03T08:43:24Z</time>
      </trkpt>
      <trkpt lat="47.30983" lon="4.96872">
        <ele>376.892</ele>
        <time>2012-08-03T08:43:35Z</time>
      </trkpt>
      <trkpt lat="47.30983" lon="4.96872">
        <ele>376.892</ele>
        <time>2012-08-03T08:43:46Z</time>
      </trkpt>
      <trkpt lat="47.30983" lon="4.96872">
        <ele>376.892</ele>
        <time>2012-08-03T08:43:57Z</time>
      </trkpt>
      <trkpt lat="47.30983" lon="4.96872">
        <ele>376.758</ele>
        <time>2012-08-03T08:44:08Z</time>
      </trkpt>
      <trkpt lat="47.30983" lon="4.96872">
        <ele>376.758</ele>
        <time>2012-08-03T08:44:19Z</time>
      </trkpt>
      <trkpt lat="47.30983" lon="4.96872">
        <ele>376.758</ele>
        <time>2012-08-03T08:44:30Z</time>
      </trkpt>
      <trkpt lat="47.30982" lon="4.96868">
        <ele>377.831</ele>
        <time>2012-08-03T08:44:41Z</time>
      </trkpt>
      <trkpt lat="47.30983" lon="4.96867">
        <ele>379.474</ele>
        <time>2012-08-03T08:44:52Z</time>
      </trkpt>
      <trkpt lat="47.30983" lon="4.96862">
        <ele>382.261</ele>
        <time>2012-08-03T08:45:03Z</time>
      </trkpt>
      <trkpt lat="47.30987" lon="4.96853">
        <ele>384.292</ele>
        <time>2012-08-03T08:45:14Z</time>
      </trkpt>
      <trkpt lat="47.3099" lon="4.96843">
        <ele>385.946</ele>
        <time>2012-08-03T08:45:25Z</time>
      </trkpt>
      <trkpt lat="47.30998" lon="4.9683">
        <ele>387.641</ele>
        <time>2012-08-03T08:45:36Z</time>
      </trkpt>
      <trkpt lat="47.31005" lon="4.9682">
        <ele>388.022</ele>
        <time>2012-08-03T08:45:47Z</time>
      </trkpt>
      <trkpt lat="47.31015" lon="4.96813">
        <ele>389.038</ele>
        <time>2012-08-03T08:45:58Z</time>
      </trkpt>
      <trkpt lat="47.31028" lon="4.96797">
        <ele>388.583</ele>
        <time>2012-08-03T08:46:09Z</time>
      </trkpt>
      <trkpt lat="47.31032" lon="4.96778">
        <ele>388.389</ele>
        <time>2012-08-03T08:46:20Z</time>
      </trkpt>
      <trkpt lat="47.31032" lon="4.96758">
        <ele>386.293</ele>
        <time>2012-08-03T08:46:31Z</time>
      </trkpt>
      <trkpt lat="47.31032" lon="4.96735">
        <ele>383.471</ele>
        <time>2012-08-03T08:46:42Z</time>
      </trkpt>
      <trkpt lat="47.31033" lon="4.9672">
        <ele>382.081</ele>
        <time>2012-08-03T08:46:53Z</time>
      </trkpt>
      <trkpt lat="47.31037" lon="4.9671">
        <ele>382.094</ele>
        <time>2012-08-03T08:47:04Z</time>
      </trkpt>
      <trkpt lat="47.31037" lon="4.96708">
        <ele>381.687</ele>
        <time>2012-08-03T08:47:15Z</time>
      </trkpt>
      <trkpt lat="47.31037" lon="4.96705">
        <ele>380.873</ele>
        <time>2012-08-03T08:47:26Z</time>
      </trkpt>
      <trkpt lat="47.31038" lon="4.96698">
        <ele>381.367</ele>
        <time>2012-08-03T08:47:37Z</time>
      </trkpt>
      <trkpt lat="47.31038" lon="4.9668">
        <ele>382.222</ele>
        <time>2012-08-03T08:47:48Z</time>
      </trkpt>
      <trkpt lat="47.3104" lon="4.9667">
        <ele>383.038</ele>
        <time>2012-08-03T08:47:59Z</time>
      </trkpt>
      <trkpt lat="47.31043" lon="4.96658">
        <ele>384.709</ele>
        <time>2012-08-03T08:48:10Z</time>
      </trkpt>
      <trkpt lat="47.31042" lon="4.96633">
        <ele>383.602</ele>
        <time>2012-08-03T08:48:21Z</time>
      </trkpt>
      <trkpt lat="47.3104" lon="4.96622">
        <ele>382.223</ele>
        <time>2012-08-03T08:48:32Z</time>
      </trkpt>
      <trkpt lat="47.31035" lon="4.96612">
        <ele>383.874</ele>
        <time>2012-08-03T08:48:43Z</time>
      </trkpt>
      <trkpt lat="47.31028" lon="4.96597">
        <ele>385.003</ele>
        <time>2012-08-03T08:48:54Z</time>
      </trkpt>
      <trkpt lat="47.3102" lon="4.96582">
        <ele>387.959</ele>
        <time>2012-08-03T08:49:05Z</time>
      </trkpt>
      <trkpt lat="47.31012" lon="4.96562">
        <ele>386.013</ele>
        <time>2012-08-03T08:49:16Z</time>
      </trkpt>
      <trkpt lat="47.31007" lon="4.96547">
        <ele>383.258</ele>
        <time>2012-08-03T08:49:27Z</time>
      </trkpt>
      <trkpt lat="47.31003" lon="4.96537">
        <ele>382.199</ele>
        <time>2012-08-03T08:49:38Z</time>
      </trkpt>
      <trkpt lat="47.31" lon="4.96532">
        <ele>385.538</ele>
        <time>2012-08-03T08:49:49Z</time>
      </trkpt>
      <trkpt lat="47.31" lon="4.9652">
        <ele>386.617</ele>
        <time>2012-08-03T08:50:00Z</time>
      </trkpt>
      <trkpt lat="47.30998" lon="4.96503">
        <ele>386.572</ele>
        <time>2012-08-03T08:50:11Z</time>
      </trkpt>
      <trkpt lat="47.31" lon="4.96492">
        <ele>387.599</ele>
        <time>2012-08-03T08:50:22Z</time>
      </trkpt>
      <trkpt lat="47.30997" lon="4.96475">
        <ele>386.586</ele>
        <time>2012-08-03T08:50:33Z</time>
      </trkpt>
      <trkpt lat="47.30992" lon="4.96453">
        <ele>384.704</ele>
        <time>2012-08-03T08:50:44Z</time>
      </trkpt>
      <trkpt lat="47.30988" lon="4.96432">
        <ele>383.278</ele>
        <time>2012-08-03T08:50:55Z</time>
      </trkpt>
      <trkpt lat="47.30985" lon="4.96408">
        <ele>382.564</ele>
        <time>2012-08-03T08:51:06Z</time>
      </trkpt>
      <trkpt lat="47.30978" lon="4.96388">
        <ele>378.271</ele>
        <time>2012-08-03T08:51:17Z</time>
      </trkpt>
      <trkpt lat="47.3097" lon="4.96365">
        <ele>377.117</ele>
        <time>2012-08-03T08:51:28Z</time>
      </trkpt>
      <trkpt lat="47.30965" lon="4.96345">
        <ele>377.276</ele>
        <time>2012-08-03T08:51:39Z</time>
      </trkpt>
      <trkpt lat="47.3096" lon="4.96338">
        <ele>378.1</ele>
        <time>2012-08-03T08:51:50Z</time>
      </trkpt>
      <trkpt lat="47.30952" lon="4.96322">
        <ele>377.641</ele>
        <time>2012-08-03T08:52:01Z</time>
      </trkpt>
      <trkpt lat="47.30942" lon="4.96307">
        <ele>377.848</ele>
        <time>2012-08-03T08:52:12Z</time>
      </trkpt>
      <trkpt lat="47.30933" lon="4.96292">
        <ele>377.538</ele>
        <time>2012-08-03T08:52:23Z</time>
      </trkpt>
      <trkpt lat="47.30925" lon="4.96273">
        <ele>379.692</ele>
        <time>2012-08-03T08:52:34Z</time>
      </trkpt>
      <trkpt lat="47.30917" lon="4.96257">
        <ele>379.974</ele>
        <time>2012-08-03T08:52:45Z</time>
      </trkpt>
      <trkpt lat="47.30907" lon="4.96247">
        <ele>383.814</ele>
        <time>2012-08-03T08:52:56Z</time>
      </trkpt>
      <trkpt lat="47.30898" lon="4.96237">
        <ele>386.683</ele>
        <time>2012-08-03T08:53:07Z</time>
      </trkpt>
      <trkpt lat="47.30892" lon="4.96228">
        <ele>387.1</ele>
        <time>2012-08-03T08:53:18Z</time>
      </trkpt>
      <trkpt lat="47.30878" lon="4.96215">
        <ele>384.616</ele>
        <time>2012-08-03T08:53:29Z</time>
      </trkpt>
      <trkpt lat="47.30875" lon="4.96208">
        <ele>384.813</ele>
        <time>2012-08-03T08:53:40Z</time>
      </trkpt>
      <trkpt lat="47.30867" lon="4.96197">
        <ele>386.726</ele>
        <time>2012-08-03T08:53:51Z</time>
      </trkpt>
      <trkpt lat="47.30855" lon="4.96187">
        <ele>389.999</ele>
        <time>2012-08-03T08:54:02Z</time>
      </trkpt>
      <trkpt lat="47.3084" lon="4.96177">
        <ele>392.695</ele>
        <time>2012-08-03T08:54:13Z</time>
      </trkpt>
      <trkpt lat="47.30827" lon="4.96165">
        <ele>393.04</ele>
        <time>2012-08-03T08:54:24Z</time>
      </trkpt>
      <trkpt lat="47.30812" lon="4.96157">
        <ele>394.65</ele>
        <time>2012-08-03T08:54:35Z</time>
      </trkpt>
      <trkpt lat="47.30803" lon="4.96145">
        <ele>395.694</ele>
        <time>2012-08-03T08:54:46Z</time>
      </trkpt>
      <trkpt lat="47.30798" lon="4.96138">
        <ele>396.555</ele>
        <time>2012-08-03T08:54:57Z</time>
      </trkpt>
      <trkpt lat="47.30787" lon="4.96128">
        <ele>397.326</ele>
        <time>2012-08-03T08:55:08Z</time>
      </trkpt>
      <trkpt lat="47.30768" lon="4.96122">
        <ele>399.226</ele>
        <time>2012-08-03T08:55:19Z</time>
      </trkpt>
      <trkpt lat="47.30755" lon="4.96113">
        <ele>400.207</ele>
        <time>2012-08-03T08:55:30Z</time>
      </trkpt>
      <trkpt lat="47.30747" lon="4.96108">
        <ele>403.644</ele>
        <time>2012-08-03T08:55:41Z</time>
      </trkpt>
      <trkpt lat="47.3074" lon="4.96108">
        <ele>406.26</ele>
        <time>2012-08-03T08:55:52Z</time>
      </trkpt>
      <trkpt lat="47.30728" lon="4.96103">
        <ele>403.029</ele>
        <time>2012-08-03T08:56:03Z</time>
      </trkpt>
      <trkpt lat="47.30722" lon="4.96103">
        <ele>401.285</ele>
        <time>2012-08-03T08:56:14Z</time>
      </trkpt>
      <trkpt lat="47.30717" lon="4.96102">
        <ele>399.255</ele>
        <time>2012-08-03T08:56:25Z</time>
      </trkpt>
      <trkpt lat="47.3071" lon="4.96097">
        <ele>398.384</ele>
        <time>2012-08-03T08:56:36Z</time>
      </trkpt>
      <trkpt lat="47.30707" lon="4.96095">
        <ele>397.575</ele>
        <time>2012-08-03T08:56:47Z</time>
      </trkpt>
      <trkpt lat="47.30705" lon="4.96093">
        <ele>395.034</ele>
        <time>2012-08-03T08:56:58Z</time>
      </trkpt>
      <trkpt lat="47.30705" lon="4.96093">
        <ele>395.034</ele>
        <time>2012-08-03T08:57:09Z</time>
      </trkpt>
      <trkpt lat="47.30705" lon="4.96093">
        <ele>395.034</ele>
        <time>2012-08-03T08:57:20Z</time>
      </trkpt>
      <trkpt lat="47.30703" lon="4.96093">
        <ele>395.293</ele>
        <time>2012-08-03T08:57:31Z</time>
      </trkpt>
      <trkpt lat="47.30702" lon="4.96093">
        <ele>394.492</ele>
        <time>2012-08-03T08:57:42Z</time>
      </trkpt>
      <trkpt lat="47.30702" lon="4.96093">
        <ele>394.492</ele>
        <time>2012-08-03T08:57:53Z</time>
      </trkpt>
      <trkpt lat="47.30702" lon="4.96093">
        <ele>393.343</ele>
        <time>2012-08-03T08:58:04Z</time>
      </trkpt>
      <trkpt lat="47.30702" lon="4.96093">
        <ele>393.343</ele>
        <time>2012-08-03T08:58:15Z</time>
      </trkpt>
      <trkpt lat="47.30702" lon="4.96093">
        <ele>393.343</ele>
        <time>2012-08-03T08:58:26Z</time>
      </trkpt>
      <trkpt lat="47.307" lon="4.96093">
        <ele>392.387</ele>
        <time>2012-08-03T08:58:37Z</time>
      </trkpt>
      <trkpt lat="47.307" lon="4.96093">
        <ele>392.387</ele>
        <time>2012-08-03T08:58:48Z</time>
      </trkpt>
      <trkpt lat="47.307" lon="4.96093">
        <ele>392.387</ele>
        <time>2012-08-03T08:58:59Z</time>
      </trkpt>
      <trkpt lat="47.307" lon="4.96092">
        <ele>389.667</ele>
        <time>2012-08-03T08:59:10Z</time>
      </trkpt>
      <trkpt lat="47.30695" lon="4.96087">
        <ele>388.024</ele>
        <time>2012-08-03T08:59:21Z</time>
      </trkpt>
      <trkpt lat="47.3069" lon="4.9608">
        <ele>387.504</ele>
        <time>2012-08-03T08:59:32Z</time>
      </trkpt>
      <trkpt lat="47.30687" lon="4.96062">
        <ele>383.736</ele>
        <time>2012-08-03T08:59:43Z</time>
      </trkpt>
      <trkpt lat="47.30685" lon="4.9605">
        <ele>381.73</ele>
        <time>2012-08-03T08:59:54Z</time>
      </trkpt>
      <trkpt lat="47.30687" lon="4.96038">
        <ele>381.13</ele>
        <time>2012-08-03T09:00:05Z</time>
      </trkpt>
      <trkpt lat="47.30682" lon="4.96018">
        <ele>375.949</ele>
        <time>2012-08-03T09:00:16Z</time>
      </trkpt>
      <trkpt lat="47.30677" lon="4.96">
        <ele>375.177</ele>
        <time>2012-08-03T09:00:27Z</time>
      </trkpt>
      <trkpt lat="47.3067" lon="4.95985">
        <ele>376.048</ele>
        <time>2012-08-03T09:00:38Z</time>
      </trkpt>
      <trkpt lat="47.30663" lon="4.95963">
        <ele>376.673</ele>
        <time>2012-08-03T09:00:49Z</time>
      </trkpt>
      <trkpt lat="47.30658" lon="4.95947">
        <ele>375.397</ele>
        <time>2012-08-03T09:01:00Z</time>
      </trkpt>
      <trkpt lat="47.30645" lon="4.95928">
        <ele>378.36</ele>
        <time>2012-08-03T09:01:11Z</time>
      </trkpt>
      <trkpt lat="47.30637" lon="4.9591">
        <ele>375.911</ele>
        <time>2012-08-03T09:01:22Z</time>
      </trkpt>
      <trkpt lat="47.30628" lon="4.95892">
        <ele>372.429</ele>
        <time>2012-08-03T09:01:33Z</time>
      </trkpt>
      <trkpt lat="47.3062" lon="4.95877">
        <ele>372.331</ele>
        <time>2012-08-03T09:01:44Z</time>
      </trkpt>
      <trkpt lat="47.30612" lon="4.9586">
        <ele>373.752</ele>
        <time>2012-08-03T09:01:55Z</time>
      </trkpt>
      <trkpt lat="47.30607" lon="4.95848">
        <ele>373.236</ele>
        <time>2012-08-03T09:02:06Z</time>
      </trkpt>
      <trkpt lat="47.30595" lon="4.95835">
        <ele>377.491</ele>
        <time>2012-08-03T09:02:17Z</time>
      </trkpt>
      <trkpt lat="47.30585" lon="4.9582">
        <ele>381.656</ele>
        <time>2012-08-03T09:02:28Z</time>
      </trkpt>
      <trkpt lat="47.30572" lon="4.9581">
        <ele>386.817</ele>
        <time>2012-08-03T09:02:39Z</time>
      </trkpt>
      <trkpt lat="47.30562" lon="4.95802">
        <ele>390.106</ele>
        <time>2012-08-03T09:02:50Z</time>
      </trkpt>
      <trkpt lat="47.3055" lon="4.9579">
        <ele>391.083</ele>
        <time>2012-08-03T09:03:01Z</time>
      </trkpt>
      <trkpt lat="47.30542" lon="4.95782">
        <ele>393.228</ele>
        <time>2012-08-03T09:03:12Z</time>
      </trkpt>
      <trkpt lat="47.30532" lon="4.95772">
        <ele>393.517</ele>
        <time>2012-08-03T09:03:23Z</time>
      </trkpt>
      <trkpt lat="47.30518" lon="4.95763">
        <ele>394.624</ele>
        <time>2012-08-03T09:03:34Z</time>
      </trkpt>
      <trkpt lat="47.30507" lon="4.95758">
        <ele>397.572</ele>
        <time>2012-08-03T09:03:45Z</time>
      </trkpt>
      <trkpt lat="47.30493" lon="4.9575">
        <ele>397.862</ele>
        <time>2012-08-03T09:03:56Z</time>
      </trkpt>
      <trkpt lat="47.30482" lon="4.95738">
        <ele>396.496</ele>
        <time>2012-08-03T09:04:07Z</time>
      </trkpt>
      <trkpt lat="47.30467" lon="4.95728">
        <ele>396.363</ele>
        <time>2012-08-03T09:04:18Z</time>
      </trkpt>
      <trkpt lat="47.30457" lon="4.95718">
        <ele>393.765</ele>
        <time>2012-08-03T09:04:29Z</time>
      </trkpt>
      <trkpt lat="47.30443" lon="4.95703">
        <ele>392.623</ele>
        <time>2012-08-03T09:04:40Z</time>
      </trkpt>
      <trkpt lat="47.3043" lon="4.95693">
        <ele>394.124</ele>
        <time>2012-08-03T09:04:51Z</time>
      </trkpt>
      <trkpt lat="47.30417" lon="4.95678">
        <ele>392.3</ele>
        <time>2012-08-03T09:05:02Z</time>
      </trkpt>
      <trkpt lat="47.30407" lon="4.95668">
        <ele>393.306</ele>
        <time>2012-08-03T09:05:13Z</time>
      </trkpt>
      <trkpt lat="47.30398" lon="4.95652">
        <ele>394.573</ele>
        <time>2012-08-03T09:05:24Z</time>
      </trkpt>
      <trkpt lat="47.30388" lon="4.95635">
        <ele>390.893</ele>
        <time>2012-08-03T09:05:35Z</time>
      </trkpt>
      <trkpt lat="47.3038" lon="4.95615">
        <ele>389.257</ele>
        <time>2012-08-03T09:05:46Z</time>
      </trkpt>
      <trkpt lat="47.30373" lon="4.956">
        <ele>390.79</ele>
        <time>2012-08-03T09:05:57Z</time>
      </trkpt>
      <trkpt lat="47.30365" lon="4.95582">
        <ele>390.708</ele>
        <time>2012-08-03T09:06:08Z</time>
      </trkpt>
      <trkpt lat="47.30358" lon="4.9557">
        <ele>393.22</ele>
        <time>2012-08-03T09:06:19Z</time>
      </trkpt>
      <trkpt lat="47.30345" lon="4.95545">
        <ele>392.737</ele>
        <time>2012-08-03T09:06:30Z</time>
      </trkpt>
      <trkpt lat="47.30335" lon="4.95525">
        <ele>391.625</ele>
        <time>2012-08-03T09:06:41Z</time>
      </trkpt>
      <trkpt lat="47.30332" lon="4.95512">
        <ele>392.128</ele>
        <time>2012-08-03T09:06:52Z</time>
      </trkpt>
      <trkpt lat="47.3032" lon="4.95493">
        <ele>395.152</ele>
        <time>2012-08-03T09:07:03Z</time>
      </trkpt>
      <trkpt lat="47.30307" lon="4.95477">
        <ele>400.189</ele>
        <time>2012-08-03T09:07:14Z</time>
      </trkpt>
      <trkpt lat="47.30297" lon="4.95455">
        <ele>403.148</ele>
        <time>2012-08-03T09:07:25Z</time>
      </trkpt>
      <trkpt lat="47.30283" lon="4.95433">
        <ele>407.743</ele>
        <time>2012-08-03T09:07:36Z</time>
      </trkpt>
      <trkpt lat="47.30272" lon="4.95415">
        <ele>408.112</ele>
        <time>2012-08-03T09:07:47Z</time>
      </trkpt>
      <trkpt lat="47.30265" lon="4.95397">
        <ele>408.946</ele>
        <time>2012-08-03T09:07:58Z</time>
      </trkpt>
      <trkpt lat="47.30258" lon="4.9538">
        <ele>410.674</ele>
        <time>2012-08-03T09:08:09Z</time>
      </trkpt>
      <trkpt lat="47.30255" lon="4.95365">
        <ele>410.492</ele>
        <time>2012-08-03T09:08:20Z</time>
      </trkpt>
      <trkpt lat="47.30248" lon="4.95347">
        <ele>412.309</ele>
        <time>2012-08-03T09:08:31Z</time>
      </trkpt>
      <trkpt lat="47.30245" lon="4.95325">
        <ele>415.144</ele>
        <time>2012-08-03T09:08:42Z</time>
      </trkpt>
      <trkpt lat="47.30242" lon="4.95305">
        <ele>415.088</ele>
        <time>2012-08-03T09:08:53Z</time>
      </trkpt>
      <trkpt lat="47.30235" lon="4.95283">
        <ele>416.41</ele>
        <time>2012-08-03T09:09:04Z</time>
      </trkpt>
      <trkpt lat="47.3023" lon="4.9526">
        <ele>414.925</ele>
        <time>2012-08-03T09:09:15Z</time>
      </trkpt>
      <trkpt lat="47.30228" lon="4.95237">
        <ele>415.419</ele>
        <time>2012-08-03T09:09:26Z</time>
      </trkpt>
      <trkpt lat="47.30223" lon="4.95217">
        <ele>419.716</ele>
        <time>2012-08-03T09:09:37Z</time>
      </trkpt>
      <trkpt lat="47.30215" lon="4.95205">
        <ele>421.427</ele>
        <time>2012-08-03T09:09:48Z</time>
      </trkpt>
      <trkpt lat="47.30212" lon="4.95183">
        <ele>425.203</ele>
        <time>2012-08-03T09:09:59Z</time>
      </trkpt>
      <trkpt lat="47.30208" lon="4.95172">
        <ele>430.023</ele>
        <time>2012-08-03T09:10:10Z</time>
      </trkpt>
      <trkpt lat="47.30208" lon="4.95155">
        <ele>430.348</ele>
        <time>2012-08-03T09:10:21Z</time>
      </trkpt>
      <trkpt lat="47.30207" lon="4.95132">
        <ele>430.982</ele>
        <time>2012-08-03T09:10:32Z</time>
      </trkpt>
      <trkpt lat="47.302" lon="4.95108">
        <ele>428.503</ele>
        <time>2012-08-03T09:10:43Z</time>
      </trkpt>
      <trkpt lat="47.30195" lon="4.95085">
        <ele>425.718</ele>
        <time>2012-08-03T09:10:54Z</time>
      </trkpt>
      <trkpt lat="47.30188" lon="4.95063">
        <ele>419.101</ele>
        <time>2012-08-03T09:11:05Z</time>
      </trkpt>
      <trkpt lat="47.30178" lon="4.95042">
        <ele>419.152</ele>
        <time>2012-08-03T09:11:16Z</time>
      </trkpt>
      <trkpt lat="47.3017" lon="4.95022">
        <ele>419.114</ele>
        <time>2012-08-03T09:11:27Z</time>
      </trkpt>
      <trkpt lat="47.30165" lon="4.95002">
        <ele>418.448</ele>
        <time>2012-08-03T09:11:38Z</time>
      </trkpt>
      <trkpt lat="47.30158" lon="4.94992">
        <ele>421.91</ele>
        <time>2012-08-03T09:11:49Z</time>
      </trkpt>
      <trkpt lat="47.3015" lon="4.94977">
        <ele>425.275</ele>
        <time>2012-08-03T09:12:00Z</time>
      </trkpt>
      <trkpt lat="47.30135" lon="4.94967">
        <ele>427.794</ele>
        <time>2012-08-03T09:12:11Z</time>
      </trkpt>
      <trkpt lat="47.30127" lon="4.94962">
        <ele>426.471</ele>
        <time>2012-08-03T09:12:22Z</time>
      </trkpt>
      <trkpt lat="47.3012" lon="4.94945">
        <ele>426.675</ele>
        <time>2012-08-03T09:12:33Z</time>
      </trkpt>
      <trkpt lat="47.30105" lon="4.94942">
        <ele>424.705</ele>
        <time>2012-08-03T09:12:44Z</time>
      </trkpt>
      <trkpt lat="47.30093" lon="4.9495">
        <ele>425.924</ele>
        <time>2012-08-03T09:12:55Z</time>
      </trkpt>
      <trkpt lat="47.30085" lon="4.94955">
        <ele>427.553</ele>
        <time>2012-08-03T09:13:06Z</time>
      </trkpt>
      <trkpt lat="47.3008" lon="4.94962">
        <ele>427.162</ele>
        <time>2012-08-03T09:13:17Z</time>
      </trkpt>
      <trkpt lat="47.30073" lon="4.94977">
        <ele>427.287</ele>
        <time>2012-08-03T09:13:28Z</time>
      </trkpt>
      <trkpt lat="47.30065" lon="4.94993">
        <ele>426.294</ele>
        <time>2012-08-03T09:13:39Z</time>
      </trkpt>
      <trkpt lat="47.30065" lon="4.95018">
        <ele>427.612</ele>
        <time>2012-08-03T09:13:50Z</time>
      </trkpt>
      <trkpt lat="47.30073" lon="4.95037">
        <ele>430.853</ele>
        <time>2012-08-03T09:14:01Z</time>
      </trkpt>
      <trkpt lat="47.30073" lon="4.95048">
        <ele>434.532</ele>
        <time>2012-08-03T09:14:12Z</time>
      </trkpt>
      <trkpt lat="47.30072" lon="4.95065">
        <ele>434.984</ele>
        <time>2012-08-03T09:14:23Z</time>
      </trkpt>
      <trkpt lat="47.30072" lon="4.95088">
        <ele>433.126</ele>
        <time>2012-08-03T09:14:34Z</time>
      </trkpt>
      <trkpt lat="47.30072" lon="4.95113">
        <ele>432.612</ele>
        <time>2012-08-03T09:14:45Z</time>
      </trkpt>
      <trkpt lat="47.30072" lon="4.95137">
        <ele>433.89</ele>
        <time>2012-08-03T09:14:56Z</time>
      </trkpt>
      <trkpt lat="47.30073" lon="4.95158">
        <ele>433.727</ele>
        <time>2012-08-03T09:15:07Z</time>
      </trkpt>
      <trkpt lat="47.30077" lon="4.95182">
        <ele>433.577</ele>
        <time>2012-08-03T09:15:18Z</time>
      </trkpt>
      <trkpt lat="47.30078" lon="4.95203">
        <ele>435.071</ele>
        <time>2012-08-03T09:15:29Z</time>
      </trkpt>
      <trkpt lat="47.30082" lon="4.95227">
        <ele>434.276</ele>
        <time>2012-08-03T09:15:40Z</time>
      </trkpt>
      <trkpt lat="47.30085" lon="4.9525">
        <ele>433.976</ele>
        <time>2012-08-03T09:15:51Z</time>
      </trkpt>
      <trkpt lat="47.30087" lon="4.95273">
        <ele>434.054</ele>
        <time>2012-08-03T09:16:02Z</time>
      </trkpt>
      <trkpt lat="47.3009" lon="4.95297">
        <ele>433.008</ele>
        <time>2012-08-03T09:16:13Z</time>
      </trkpt>
      <trkpt lat="47.30093" lon="4.95322">
        <ele>430.576</ele>
        <time>2012-08-03T09:16:24Z</time>
      </trkpt>
      <trkpt lat="47.30095" lon="4.95345">
        <ele>429.637</ele>
        <time>2012-08-03T09:16:35Z</time>
      </trkpt>
      <trkpt lat="47.30097" lon="4.95367">
        <ele>428.292</ele>
        <time>2012-08-03T09:16:46Z</time>
      </trkpt>
      <trkpt lat="47.30098" lon="4.95388">
        <ele>430.228</ele>
        <time>2012-08-03T09:16:57Z</time>
      </trkpt>
      <trkpt lat="47.30102" lon="4.95412">
        <ele>430.056</ele>
        <time>2012-08-03T09:17:08Z</time>
      </trkpt>
      <trkpt lat="47.30105" lon="4.95428">
        <ele>429.619</ele>
        <time>2012-08-03T09:17:19Z</time>
      </trkpt>
      <trkpt lat="47.30107" lon="4.9545">
        <ele>431.481</ele>
        <time>2012-08-03T09:17:30Z</time>
      </trkpt>
      <trkpt lat="47.30105" lon="4.9547">
        <ele>434.38</ele>
        <time>2012-08-03T09:17:41Z</time>
      </trkpt>
      <trkpt lat="47.30105" lon="4.95488">
        <ele>436.205</ele>
        <time>2012-08-03T09:17:52Z</time>
      </trkpt>
      <trkpt lat="47.30105" lon="4.9551">
        <ele>438.616</ele>
        <time>2012-08-03T09:18:03Z</time>
      </trkpt>
      <trkpt lat="47.30103" lon="4.95532">
        <ele>438.778</ele>
        <time>2012-08-03T09:18:14Z</time>
      </trkpt>
      <trkpt lat="47.30105" lon="4.95552">
        <ele>439.913</ele>
        <time>2012-08-03T09:18:25Z</time>
      </trkpt>
      <trkpt lat="47.30107" lon="4.95572">
        <ele>439.562</ele>
        <time>2012-08-03T09:18:36Z</time>
      </trkpt>
      <trkpt lat="47.30107" lon="4.95595">
        <ele>439.685</ele>
        <time>2012-08-03T09:18:47Z</time>
      </trkpt>
      <trkpt lat="47.30107" lon="4.95617">
        <ele>440.022</ele>
        <time>2012-08-03T09:18:58Z</time>
      </trkpt>
      <trkpt lat="47.30107" lon="4.9564">
        <ele>441.11</ele>
        <time>2012-08-03T09:19:09Z</time>
      </trkpt>
      <trkpt lat="47.3011" lon="4.95663">
        <ele>439.143</ele>
        <time>2012-08-03T09:19:20Z</time>
      </trkpt>
      <trkpt lat="47.30112" lon="4.95685">
        <ele>439.165</ele>
        <time>2012-08-03T09:19:31Z</time>
      </trkpt>
      <trkpt lat="47.30112" lon="4.95707">
        <ele>440.805</ele>
        <time>2012-08-03T09:19:42Z</time>
      </trkpt>
      <trkpt lat="47.30112" lon="4.95722">
        <ele>443.255</ele>
        <time>2012-08-03T09:19:53Z</time>
      </trkpt>
      <trkpt lat="47.30108" lon="4.95742">
        <ele>445.705</ele>
        <time>2012-08-03T09:20:04Z</time>
      </trkpt>
      <trkpt lat="47.30107" lon="4.95763">
        <ele>446.69</ele>
        <time>2012-08-03T09:20:15Z</time>
      </trkpt>
      <trkpt lat="47.30105" lon="4.95783">
        <ele>446.643</ele>
        <time>2012-08-03T09:20:26Z</time>
      </trkpt>
      <trkpt lat="47.30102" lon="4.95805">
        <ele>446.291</ele>
        <time>2012-08-03T09:20:37Z</time>
      </trkpt>
      <trkpt lat="47.30093" lon="4.95823">
        <ele>448.276</ele>
        <time>2012-08-03T09:20:48Z</time>
      </trkpt>
      <trkpt lat="47.30085" lon="4.9584">
        <ele>450.608</ele>
        <time>2012-08-03T09:20:59Z</time>
      </trkpt>
      <trkpt lat="47.30078" lon="4.9586">
        <ele>449.89</ele>
        <time>2012-08-03T09:21:10Z</time>
      </trkpt>
      <trkpt lat="47.3007" lon="4.95873">
        <ele>451.208</ele>
        <time>2012-08-03T09:21:21Z</time>
      </trkpt>
      <trkpt lat="47.3006" lon="4.95883">
        <ele>451.642</ele>
        <time>2012-08-03T09:21:32Z</time>
      </trkpt>
      <trkpt lat="47.30052" lon="4.95902">
        <ele>447.123</ele>
        <time>2012-08-03T09:21:43Z</time>
      </trkpt>
      <trkpt lat="47.30045" lon="4.95918">
        <ele>445.451</ele>
        <time>2012-08-03T09:21:54Z</time>
      </trkpt>
      <trkpt lat="47.3004" lon="4.95933">
        <ele>442.249</ele>
        <time>2012-08-03T09:22:05Z</time>
      </trkpt>
      <trkpt lat="47.30037" lon="4.95953">
        <ele>439.569</ele>
        <time>2012-08-03T09:22:16Z</time>
      </trkpt>
      <trkpt lat="47.30037" lon="4.95955">
        <ele>439.406</ele>
        <time>2012-08-03T09:22:27Z</time>
      </trkpt>
      <trkpt lat="47.30035" lon="4.9597">
        <ele>438.344</ele>
        <time>2012-08-03T09:22:38Z</time>
      </trkpt>
      <trkpt lat="47.30028" lon="4.95987">
        <ele>437.392</ele>
        <time>2012-08-03T09:22:49Z</time>
      </trkpt>
      <trkpt lat="47.30023" lon="4.96007">
        <ele>435.706</ele>
        <time>2012-08-03T09:23:00Z</time>
      </trkpt>
      <trkpt lat="47.30018" lon="4.96027">
        <ele>433.898</ele>
        <time>2012-08-03T09:23:11Z</time>
      </trkpt>
      <trkpt lat="47.30013" lon="4.96047">
        <ele>433.027</ele>
        <time>2012-08-03T09:23:22Z</time>
      </trkpt>
      <trkpt lat="47.30012" lon="4.96067">
        <ele>426.3</ele>
        <time>2012-08-03T09:23:33Z</time>
      </trkpt>
      <trkpt lat="47.30012" lon="4.96088">
        <ele>429.305</ele>
        <time>2012-08-03T09:23:44Z</time>
      </trkpt>
      <trkpt lat="47.30012" lon="4.9611">
        <ele>426.646</ele>
        <time>2012-08-03T09:23:55Z</time>
      </trkpt>
      <trkpt lat="47.3001" lon="4.9613">
        <ele>425.542</ele>
        <time>2012-08-03T09:24:06Z</time>
      </trkpt>
      <trkpt lat="47.3001" lon="4.96152">
        <ele>424.373</ele>
        <time>2012-08-03T09:24:17Z</time>
      </trkpt>
      <trkpt lat="47.30007" lon="4.96173">
        <ele>422.336</ele>
        <time>2012-08-03T09:24:28Z</time>
      </trkpt>
      <trkpt lat="47.30012" lon="4.96187">
        <ele>422.113</ele>
        <time>2012-08-03T09:24:39Z</time>
      </trkpt>
      <trkpt lat="47.30018" lon="4.96202">
        <ele>423.231</ele>
        <time>2012-08-03T09:24:50Z</time>
      </trkpt>
      <trkpt lat="47.30025" lon="4.96215">
        <ele>423.194</ele>
        <time>2012-08-03T09:25:01Z</time>
      </trkpt>
      <trkpt lat="47.3003" lon="4.96228">
        <ele>424.571</ele>
        <time>2012-08-03T09:25:12Z</time>
      </trkpt>
      <trkpt lat="47.30027" lon="4.96242">
        <ele>425.504</ele>
        <time>2012-08-03T09:25:23Z</time>
      </trkpt>
      <trkpt lat="47.30018" lon="4.96252">
        <ele>425.443</ele>
        <time>2012-08-03T09:25:34Z</time>
      </trkpt>
      <trkpt lat="47.30015" lon="4.96262">
        <ele>426.504</ele>
        <time>2012-08-03T09:25:45Z</time>
      </trkpt>
      <trkpt lat="47.30018" lon="4.96273">
        <ele>427.871</ele>
        <time>2012-08-03T09:25:56Z</time>
      </trkpt>
      <trkpt lat="47.30022" lon="4.96288">
        <ele>428.867</ele>
        <time>2012-08-03T09:26:07Z</time>
      </trkpt>
      <trkpt lat="47.30023" lon="4.96307">
        <ele>429.223</ele>
        <time>2012-08-03T09:26:18Z</time>
      </trkpt>
      <trkpt lat="47.30025" lon="4.96317">
        <ele>429.488</ele>
        <time>2012-08-03T09:26:29Z</time>
      </trkpt>
      <trkpt lat="47.30032" lon="4.96343">
        <ele>429.913</ele>
        <time>2012-08-03T09:26:40Z</time>
      </trkpt>
      <trkpt lat="47.30037" lon="4.96362">
        <ele>430.902</ele>
        <time>2012-08-03T09:26:51Z</time>
      </trkpt>
      <trkpt lat="47.30038" lon="4.96373">
        <ele>430.584</ele>
        <time>2012-08-03T09:27:02Z</time>
      </trkpt>
      <trkpt lat="47.30042" lon="4.96383">
        <ele>432.102</ele>
        <time>2012-08-03T09:27:13Z</time>
      </trkpt>
      <trkpt lat="47.3005" lon="4.9641">
        <ele>431.66</ele>
        <time>2012-08-03T09:27:24Z</time>
      </trkpt>
      <trkpt lat="47.30052" lon="4.96427">
        <ele>432.234</ele>
        <time>2012-08-03T09:27:35Z</time>
      </trkpt>
      <trkpt lat="47.30057" lon="4.96445">
        <ele>433.951</ele>
        <time>2012-08-03T09:27:46Z</time>
      </trkpt>
      <trkpt lat="47.30062" lon="4.96465">
        <ele>434.006</ele>
        <time>2012-08-03T09:27:57Z</time>
      </trkpt>
      <trkpt lat="47.30067" lon="4.96488">
        <ele>434.35</ele>
        <time>2012-08-03T09:28:08Z</time>
      </trkpt>
      <trkpt lat="47.3007" lon="4.9651">
        <ele>433.742</ele>
        <time>2012-08-03T09:28:19Z</time>
      </trkpt>
      <trkpt lat="47.30065" lon="4.96522">
        <ele>432.119</ele>
        <time>2012-08-03T09:28:30Z</time>
      </trkpt>
      <trkpt lat="47.3006" lon="4.96525">
        <ele>432.095</ele>
        <time>2012-08-03T09:28:41Z</time>
      </trkpt>
      <trkpt lat="47.30058" lon="4.9653">
        <ele>431.873</ele>
        <time>2012-08-03T09:28:52Z</time>
      </trkpt>
      <trkpt lat="47.30052" lon="4.96542">
        <ele>430.057</ele>
        <time>2012-08-03T09:29:03Z</time>
      </trkpt>
      <trkpt lat="47.30045" lon="4.96547">
        <ele>429.218</ele>
        <time>2012-08-03T09:29:14Z</time>
      </trkpt>
      <trkpt lat="47.30038" lon="4.96547">
        <ele>429.081</ele>
        <time>2012-08-03T09:29:25Z</time>
      </trkpt>
      <trkpt lat="47.30023" lon="4.96555">
        <ele>428.979</ele>
        <time>2012-08-03T09:29:36Z</time>
      </trkpt>
      <trkpt lat="47.3001" lon="4.9656">
        <ele>429.247</ele>
        <time>2012-08-03T09:29:47Z</time>
      </trkpt>
      <trkpt lat="47.29992" lon="4.96575">
        <ele>428.359</ele>
        <time>2012-08-03T09:29:58Z</time>
      </trkpt>
      <trkpt lat="47.29977" lon="4.96592">
        <ele>432.049</ele>
        <time>2012-08-03T09:30:09Z</time>
      </trkpt>
      <trkpt lat="47.29965" lon="4.96612">
        <ele>429.567</ele>
        <time>2012-08-03T09:30:20Z</time>
      </trkpt>
      <trkpt lat="47.29965" lon="4.9662">
        <ele>428.335</ele>
        <time>2012-08-03T09:30:31Z</time>
      </trkpt>
      <trkpt lat="47.29962" lon="4.96638">
        <ele>426.018</ele>
        <time>2012-08-03T09:30:42Z</time>
      </trkpt>
      <trkpt lat="47.29957" lon="4.96658">
        <ele>421.76</ele>
        <time>2012-08-03T09:30:53Z</time>
      </trkpt>
      <trkpt lat="47.29953" lon="4.96675">
        <ele>421.441</ele>
        <time>2012-08-03T09:31:04Z</time>
      </trkpt>
      <trkpt lat="47.29942" lon="4.9669">
        <ele>418.374</ele>
        <time>2012-08-03T09:31:15Z</time>
      </trkpt>
      <trkpt lat="47.2993" lon="4.96708">
        <ele>416.141</ele>
        <time>2012-08-03T09:31:26Z</time>
      </trkpt>
      <trkpt lat="47.2992" lon="4.96732">
        <ele>413.506</ele>
        <time>2012-08-03T09:31:37Z</time>
      </trkpt>
      <trkpt lat="47.2991" lon="4.9675">
        <ele>411.524</ele>
        <time>2012-08-03T09:31:48Z</time>
      </trkpt>
      <trkpt lat="47.29902" lon="4.9677">
        <ele>408.135</ele>
        <time>2012-08-03T09:31:59Z</time>
      </trkpt>
      <trkpt lat="47.29892" lon="4.96788">
        <ele>405.843</ele>
        <time>2012-08-03T09:32:10Z</time>
      </trkpt>
      <trkpt lat="47.29888" lon="4.96807">
        <ele>405.558</ele>
        <time>2012-08-03T09:32:21Z</time>
      </trkpt>
      <trkpt lat="47.2988" lon="4.96825">
        <ele>405.209</ele>
        <time>2012-08-03T09:32:32Z</time>
      </trkpt>
      <trkpt lat="47.29873" lon="4.96842">
        <ele>404.332</ele>
        <time>2012-08-03T09:32:43Z</time>
      </trkpt>
      <trkpt lat="47.29867" lon="4.96858">
        <ele>404.046</ele>
        <time>2012-08-03T09:32:54Z</time>
      </trkpt>
      <trkpt lat="47.29862" lon="4.96873">
        <ele>403.117</ele>
        <time>2012-08-03T09:33:05Z</time>
      </trkpt>
      <trkpt lat="47.29855" lon="4.96898">
        <ele>401.345</ele>
        <time>2012-08-03T09:33:16Z</time>
      </trkpt>
      <trkpt lat="47.2985" lon="4.96918">
        <ele>400.365</ele>
        <time>2012-08-03T09:33:27Z</time>
      </trkpt>
      <trkpt lat="47.29845" lon="4.96938">
        <ele>399.084</ele>
        <time>2012-08-03T09:33:38Z</time>
      </trkpt>
      <trkpt lat="47.2984" lon="4.96955">
        <ele>398.072</ele>
        <time>2012-08-03T09:33:49Z</time>
      </trkpt>
      <trkpt lat="47.29837" lon="4.96975">
        <ele>399.069</ele>
        <time>2012-08-03T09:34:00Z</time>
      </trkpt>
      <trkpt lat="47.29833" lon="4.96998">
        <ele>399.2</ele>
        <time>2012-08-03T09:34:11Z</time>
      </trkpt>
      <trkpt lat="47.2983" lon="4.97025">
        <ele>397.858</ele>
        <time>2012-08-03T09:34:22Z</time>
      </trkpt>
      <trkpt lat="47.2983" lon="4.97048">
        <ele>384.9</ele>
        <time>2012-08-03T09:34:33Z</time>
      </trkpt>
      <trkpt lat="47.29832" lon="4.97072">
        <ele>398.53</ele>
        <time>2012-08-03T09:34:44Z</time>
      </trkpt>
      <trkpt lat="47.29832" lon="4.97097">
        <ele>396.005</ele>
        <time>2012-08-03T09:34:55Z</time>
      </trkpt>
      <trkpt lat="47.29835" lon="4.9712">
        <ele>396.688</ele>
        <time>2012-08-03T09:35:06Z</time>
      </trkpt>
      <trkpt lat="47.29838" lon="4.97142">
        <ele>396.058</ele>
        <time>2012-08-03T09:35:17Z</time>
      </trkpt>
      <trkpt lat="47.2984" lon="4.9716">
        <ele>396.49</ele>
        <time>2012-08-03T09:35:28Z</time>
      </trkpt>
      <trkpt lat="47.2984" lon="4.97178">
        <ele>397.38</ele>
        <time>2012-08-03T09:35:39Z</time>
      </trkpt>
      <trkpt lat="47.29842" lon="4.97195">
        <ele>396.643</ele>
        <time>2012-08-03T09:35:50Z</time>
      </trkpt>
      <trkpt lat="47.29843" lon="4.97218">
        <ele>397.149</ele>
        <time>2012-08-03T09:36:01Z</time>
      </trkpt>
      <trkpt lat="47.29843" lon="4.97238">
        <ele>389.5</ele>
        <time>2012-08-03T09:36:12Z</time>
      </trkpt>
      <trkpt lat="47.29845" lon="4.97262">
        <ele>398.641</ele>
        <time>2012-08-03T09:36:23Z</time>
      </trkpt>
      <trkpt lat="47.29842" lon="4.97275">
        <ele>400.382</ele>
        <time>2012-08-03T09:36:34Z</time>
      </trkpt>
      <trkpt lat="47.29838" lon="4.97297">
        <ele>400.433</ele>
        <time>2012-08-03T09:36:45Z</time>
      </trkpt>
      <trkpt lat="47.29835" lon="4.97315">
        <ele>400.054</ele>
        <time>2012-08-03T09:36:56Z</time>
      </trkpt>
      <trkpt lat="47.29833" lon="4.9734">
        <ele>399.073</ele>
        <time>2012-08-03T09:37:07Z</time>
      </trkpt>
      <trkpt lat="47.29828" lon="4.97355">
        <ele>399.402</ele>
        <time>2012-08-03T09:37:18Z</time>
      </trkpt>
      <trkpt lat="47.29825" lon="4.9738">
        <ele>398.142</ele>
        <time>2012-08-03T09:37:29Z</time>
      </trkpt>
      <trkpt lat="47.2983" lon="4.97402">
        <ele>395.345</ele>
        <time>2012-08-03T09:37:40Z</time>
      </trkpt>
      <trkpt lat="47.29833" lon="4.97427">
        <ele>393.648</ele>
        <time>2012-08-03T09:37:51Z</time>
      </trkpt>
      <trkpt lat="47.29835" lon="4.97452">
        <ele>393.753</ele>
        <time>2012-08-03T09:38:02Z</time>
      </trkpt>
      <trkpt lat="47.29838" lon="4.97473">
        <ele>393.737</ele>
        <time>2012-08-03T09:38:13Z</time>
      </trkpt>
      <trkpt lat="47.29842" lon="4.97495">
        <ele>393.558</ele>
        <time>2012-08-03T09:38:24Z</time>
      </trkpt>
      <trkpt lat="47.29847" lon="4.97517">
        <ele>393.859</ele>
        <time>2012-08-03T09:38:35Z</time>
      </trkpt>
      <trkpt lat="47.2985" lon="4.97537">
        <ele>393.152</ele>
        <time>2012-08-03T09:38:46Z</time>
      </trkpt>
      <trkpt lat="47.29853" lon="4.97558">
        <ele>391.046</ele>
        <time>2012-08-03T09:38:57Z</time>
      </trkpt>
      <trkpt lat="47.29858" lon="4.97582">
        <ele>390.152</ele>
        <time>2012-08-03T09:39:08Z</time>
      </trkpt>
      <trkpt lat="47.29862" lon="4.97603">
        <ele>389.413</ele>
        <time>2012-08-03T09:39:19Z</time>
      </trkpt>
      <trkpt lat="47.29867" lon="4.97623">
        <ele>389.011</ele>
        <time>2012-08-03T09:39:30Z</time>
      </trkpt>
      <trkpt lat="47.2987" lon="4.97643">
        <ele>385</ele>
        <time>2012-08-03T09:39:41Z</time>
      </trkpt>
      <trkpt lat="47.29875" lon="4.97667">
        <ele>386.369</ele>
        <time>2012-08-03T09:39:52Z</time>
      </trkpt>
      <trkpt lat="47.29875" lon="4.97688">
        <ele>385.403</ele>
        <time>2012-08-03T09:40:03Z</time>
      </trkpt>
      <trkpt lat="47.29875" lon="4.9771">
        <ele>385.195</ele>
        <time>2012-08-03T09:40:14Z</time>
      </trkpt>
      <trkpt lat="47.29875" lon="4.9773">
        <ele>386.219</ele>
        <time>2012-08-03T09:40:25Z</time>
      </trkpt>
      <trkpt lat="47.29877" lon="4.97752">
        <ele>387.132</ele>
        <time>2012-08-03T09:40:36Z</time>
      </trkpt>
      <trkpt lat="47.29877" lon="4.97765">
        <ele>388.06</ele>
        <time>2012-08-03T09:40:47Z</time>
      </trkpt>
      <trkpt lat="47.29877" lon="4.97788">
        <ele>389.366</ele>
        <time>2012-08-03T09:40:58Z</time>
      </trkpt>
      <trkpt lat="47.29877" lon="4.9781">
        <ele>389.788</ele>
        <time>2012-08-03T09:41:09Z</time>
      </trkpt>
      <trkpt lat="47.29878" lon="4.97832">
        <ele>391.24</ele>
        <time>2012-08-03T09:41:20Z</time>
      </trkpt>
      <trkpt lat="47.2988" lon="4.97853">
        <ele>391.285</ele>
        <time>2012-08-03T09:41:31Z</time>
      </trkpt>
      <trkpt lat="47.2988" lon="4.97873">
        <ele>391.76</ele>
        <time>2012-08-03T09:41:42Z</time>
      </trkpt>
      <trkpt lat="47.2988" lon="4.97895">
        <ele>390.827</ele>
        <time>2012-08-03T09:41:53Z</time>
      </trkpt>
      <trkpt lat="47.2988" lon="4.97917">
        <ele>391.177</ele>
        <time>2012-08-03T09:42:04Z</time>
      </trkpt>
      <trkpt lat="47.29882" lon="4.97938">
        <ele>391.28</ele>
        <time>2012-08-03T09:42:15Z</time>
      </trkpt>
      <trkpt lat="47.29882" lon="4.97962">
        <ele>391.201</ele>
        <time>2012-08-03T09:42:26Z</time>
      </trkpt>
      <trkpt lat="47.29882" lon="4.97983">
        <ele>391.052</ele>
        <time>2012-08-03T09:42:37Z</time>
      </trkpt>
      <trkpt lat="47.29882" lon="4.98002">
        <ele>391.56</ele>
        <time>2012-08-03T09:42:48Z</time>
      </trkpt>
      <trkpt lat="47.29883" lon="4.98023">
        <ele>392.201</ele>
        <time>2012-08-03T09:42:59Z</time>
      </trkpt>
      <trkpt lat="47.29883" lon="4.98045">
        <ele>391.729</ele>
        <time>2012-08-03T09:43:10Z</time>
      </trkpt>
      <trkpt lat="47.29887" lon="4.98065">
        <ele>392.508</ele>
        <time>2012-08-03T09:43:21Z</time>
      </trkpt>
      <trkpt lat="47.29893" lon="4.98088">
        <ele>391.162</ele>
        <time>2012-08-03T09:43:32Z</time>
      </trkpt>
      <trkpt lat="47.299" lon="4.98108">
        <ele>391.495</ele>
        <time>2012-08-03T09:43:43Z</time>
      </trkpt>
      <trkpt lat="47.29907" lon="4.9813">
        <ele>391.399</ele>
        <time>2012-08-03T09:43:54Z</time>
      </trkpt>
      <trkpt lat="47.29913" lon="4.98148">
        <ele>392.731</ele>
        <time>2012-08-03T09:44:05Z</time>
      </trkpt>
      <trkpt lat="47.2992" lon="4.98167">
        <ele>392.961</ele>
        <time>2012-08-03T09:44:16Z</time>
      </trkpt>
      <trkpt lat="47.29928" lon="4.98188">
        <ele>391.923</ele>
        <time>2012-08-03T09:44:27Z</time>
      </trkpt>
      <trkpt lat="47.29937" lon="4.98208">
        <ele>390.627</ele>
        <time>2012-08-03T09:44:38Z</time>
      </trkpt>
      <trkpt lat="47.29943" lon="4.98225">
        <ele>390.284</ele>
        <time>2012-08-03T09:44:49Z</time>
      </trkpt>
      <trkpt lat="47.29953" lon="4.98243">
        <ele>390.978</ele>
        <time>2012-08-03T09:45:00Z</time>
      </trkpt>
      <trkpt lat="47.29963" lon="4.9826">
        <ele>390.56</ele>
        <time>2012-08-03T09:45:11Z</time>
      </trkpt>
      <trkpt lat="47.29972" lon="4.9828">
        <ele>389.847</ele>
        <time>2012-08-03T09:45:22Z</time>
      </trkpt>
      <trkpt lat="47.2998" lon="4.98297">
        <ele>390.196</ele>
        <time>2012-08-03T09:45:33Z</time>
      </trkpt>
      <trkpt lat="47.29987" lon="4.98315">
        <ele>390.667</ele>
        <time>2012-08-03T09:45:44Z</time>
      </trkpt>
      <trkpt lat="47.29988" lon="4.98335">
        <ele>390.43</ele>
        <time>2012-08-03T09:45:55Z</time>
      </trkpt>
      <trkpt lat="47.29987" lon="4.98355">
        <ele>390.15</ele>
        <time>2012-08-03T09:46:06Z</time>
      </trkpt>
      <trkpt lat="47.29983" lon="4.9837">
        <ele>391.566</ele>
        <time>2012-08-03T09:46:17Z</time>
      </trkpt>
      <trkpt lat="47.2998" lon="4.98393">
        <ele>392.309</ele>
        <time>2012-08-03T09:46:28Z</time>
      </trkpt>
      <trkpt lat="47.29977" lon="4.98412">
        <ele>393.922</ele>
        <time>2012-08-03T09:46:39Z</time>
      </trkpt>
      <trkpt lat="47.29975" lon="4.98435">
        <ele>393.93</ele>
        <time>2012-08-03T09:46:50Z</time>
      </trkpt>
      <trkpt lat="47.29973" lon="4.98457">
        <ele>394.021</ele>
        <time>2012-08-03T09:47:01Z</time>
      </trkpt>
      <trkpt lat="47.29973" lon="4.98478">
        <ele>393.659</ele>
        <time>2012-08-03T09:47:12Z</time>
      </trkpt>
      <trkpt lat="47.29973" lon="4.98502">
        <ele>392.733</ele>
        <time>2012-08-03T09:47:23Z</time>
      </trkpt>
      <trkpt lat="47.29972" lon="4.9852">
        <ele>385</ele>
        <time>2012-08-03T09:47:34Z</time>
      </trkpt>
      <trkpt lat="47.29972" lon="4.98543">
        <ele>393.403</ele>
        <time>2012-08-03T09:47:45Z</time>
      </trkpt>
      <trkpt lat="47.29968" lon="4.98563">
        <ele>393.074</ele>
        <time>2012-08-03T09:47:56Z</time>
      </trkpt>
      <trkpt lat="47.29965" lon="4.98583">
        <ele>393.163</ele>
        <time>2012-08-03T09:48:07Z</time>
      </trkpt>
      <trkpt lat="47.29958" lon="4.98603">
        <ele>393.412</ele>
        <time>2012-08-03T09:48:18Z</time>
      </trkpt>
      <trkpt lat="47.29953" lon="4.98625">
        <ele>391.557</ele>
        <time>2012-08-03T09:48:29Z</time>
      </trkpt>
      <trkpt lat="47.29948" lon="4.98645">
        <ele>389.23</ele>
        <time>2012-08-03T09:48:40Z</time>
      </trkpt>
      <trkpt lat="47.29943" lon="4.98667">
        <ele>388.506</ele>
        <time>2012-08-03T09:48:51Z</time>
      </trkpt>
      <trkpt lat="47.29938" lon="4.98688">
        <ele>387.717</ele>
        <time>2012-08-03T09:49:02Z</time>
      </trkpt>
      <trkpt lat="47.29932" lon="4.98707">
        <ele>386.895</ele>
        <time>2012-08-03T09:49:13Z</time>
      </trkpt>
      <trkpt lat="47.29923" lon="4.98722">
        <ele>386.931</ele>
        <time>2012-08-03T09:49:24Z</time>
      </trkpt>
      <trkpt lat="47.29915" lon="4.98738">
        <ele>387.091</ele>
        <time>2012-08-03T09:49:35Z</time>
      </trkpt>
      <trkpt lat="47.2991" lon="4.98757">
        <ele>386.74</ele>
        <time>2012-08-03T09:49:46Z</time>
      </trkpt>
      <trkpt lat="47.2991" lon="4.98775">
        <ele>386.703</ele>
        <time>2012-08-03T09:49:57Z</time>
      </trkpt>
      <trkpt lat="47.29913" lon="4.98795">
        <ele>387.415</ele>
        <time>2012-08-03T09:50:08Z</time>
      </trkpt>
      <trkpt lat="47.29917" lon="4.98815">
        <ele>385.665</ele>
        <time>2012-08-03T09:50:19Z</time>
      </trkpt>
      <trkpt lat="47.2992" lon="4.98837">
        <ele>384.967</ele>
        <time>2012-08-03T09:50:30Z</time>
      </trkpt>
      <trkpt lat="47.2992" lon="4.9886">
        <ele>385.544</ele>
        <time>2012-08-03T09:50:41Z</time>
      </trkpt>
      <trkpt lat="47.29918" lon="4.98878">
        <ele>382.3</ele>
        <time>2012-08-03T09:50:52Z</time>
      </trkpt>
      <trkpt lat="47.29925" lon="4.989">
        <ele>386.354</ele>
        <time>2012-08-03T09:51:03Z</time>
      </trkpt>
      <trkpt lat="47.2993" lon="4.98913">
        <ele>386.009</ele>
        <time>2012-08-03T09:51:14Z</time>
      </trkpt>
      <trkpt lat="47.29935" lon="4.98932">
        <ele>385.809</ele>
        <time>2012-08-03T09:51:25Z</time>
      </trkpt>
      <trkpt lat="47.29943" lon="4.9894">
        <ele>387.581</ele>
        <time>2012-08-03T09:51:36Z</time>
      </trkpt>
      <trkpt lat="47.29957" lon="4.98948">
        <ele>386.809</ele>
        <time>2012-08-03T09:51:47Z</time>
      </trkpt>
      <trkpt lat="47.2997" lon="4.98957">
        <ele>386.215</ele>
        <time>2012-08-03T09:51:58Z</time>
      </trkpt>
      <trkpt lat="47.29983" lon="4.98967">
        <ele>384.425</ele>
        <time>2012-08-03T09:52:09Z</time>
      </trkpt>
      <trkpt lat="47.29992" lon="4.98977">
        <ele>383.783</ele>
        <time>2012-08-03T09:52:20Z</time>
      </trkpt>
      <trkpt lat="47.29998" lon="4.9899">
        <ele>382.924</ele>
        <time>2012-08-03T09:52:31Z</time>
      </trkpt>
      <trkpt lat="47.30013" lon="4.98998">
        <ele>382.376</ele>
        <time>2012-08-03T09:52:42Z</time>
      </trkpt>
      <trkpt lat="47.30015" lon="4.99017">
        <ele>382.235</ele>
        <time>2012-08-03T09:52:53Z</time>
      </trkpt>
      <trkpt lat="47.30012" lon="4.99035">
        <ele>381.929</ele>
        <time>2012-08-03T09:53:04Z</time>
      </trkpt>
      <trkpt lat="47.3001" lon="4.99047">
        <ele>382.572</ele>
        <time>2012-08-03T09:53:15Z</time>
      </trkpt>
      <trkpt lat="47.30002" lon="4.99065">
        <ele>382.814</ele>
        <time>2012-08-03T09:53:26Z</time>
      </trkpt>
      <trkpt lat="47.29995" lon="4.9908">
        <ele>384.118</ele>
        <time>2012-08-03T09:53:37Z</time>
      </trkpt>
      <trkpt lat="47.29985" lon="4.99097">
        <ele>383.458</ele>
        <time>2012-08-03T09:53:48Z</time>
      </trkpt>
      <trkpt lat="47.29978" lon="4.99112">
        <ele>384.682</ele>
        <time>2012-08-03T09:53:59Z</time>
      </trkpt>
      <trkpt lat="47.29972" lon="4.99128">
        <ele>386.399</ele>
        <time>2012-08-03T09:54:10Z</time>
      </trkpt>
      <trkpt lat="47.29967" lon="4.99143">
        <ele>386.695</ele>
        <time>2012-08-03T09:54:21Z</time>
      </trkpt>
      <trkpt lat="47.2996" lon="4.99153">
        <ele>388.132</ele>
        <time>2012-08-03T09:54:32Z</time>
      </trkpt>
      <trkpt lat="47.2995" lon="4.9917">
        <ele>389.994</ele>
        <time>2012-08-03T09:54:43Z</time>
      </trkpt>
      <trkpt lat="47.29942" lon="4.99187">
        <ele>392.628</ele>
        <time>2012-08-03T09:54:54Z</time>
      </trkpt>
      <trkpt lat="47.29937" lon="4.99207">
        <ele>394.017</ele>
        <time>2012-08-03T09:55:05Z</time>
      </trkpt>
      <trkpt lat="47.29932" lon="4.99218">
        <ele>395.191</ele>
        <time>2012-08-03T09:55:16Z</time>
      </trkpt>
      <trkpt lat="47.29928" lon="4.99237">
        <ele>395.231</ele>
        <time>2012-08-03T09:55:27Z</time>
      </trkpt>
      <trkpt lat="47.29922" lon="4.99243">
        <ele>393.755</ele>
        <time>2012-08-03T09:55:38Z</time>
      </trkpt>
      <trkpt lat="47.2991" lon="4.99258">
        <ele>390.586</ele>
        <time>2012-08-03T09:55:49Z</time>
      </trkpt>
      <trkpt lat="47.299" lon="4.99267">
        <ele>390.422</ele>
        <time>2012-08-03T09:56:00Z</time>
      </trkpt>
      <trkpt lat="47.29892" lon="4.99277">
        <ele>387.976</ele>
        <time>2012-08-03T09:56:11Z</time>
      </trkpt>
      <trkpt lat="47.2989" lon="4.99278">
        <ele>385.742</ele>
        <time>2012-08-03T09:56:22Z</time>
      </trkpt>
      <trkpt lat="47.29873" lon="4.99287">
        <ele>386.042</ele>
        <time>2012-08-03T09:56:33Z</time>
      </trkpt>
      <trkpt lat="47.29858" lon="4.99297">
        <ele>368.2</ele>
        <time>2012-08-03T09:56:44Z</time>
      </trkpt>
      <trkpt lat="47.29847" lon="4.99308">
        <ele>390.417</ele>
        <time>2012-08-03T09:56:55Z</time>
      </trkpt>
      <trkpt lat="47.29835" lon="4.9932">
        <ele>388.109</ele>
        <time>2012-08-03T09:57:06Z</time>
      </trkpt>
      <trkpt lat="47.29832" lon="4.99322">
        <ele>385.914</ele>
        <time>2012-08-03T09:57:17Z</time>
      </trkpt>
      <trkpt lat="47.2982" lon="4.99323">
        <ele>383.196</ele>
        <time>2012-08-03T09:57:28Z</time>
      </trkpt>
      <trkpt lat="47.29817" lon="4.99322">
        <ele>382.062</ele>
        <time>2012-08-03T09:57:39Z</time>
      </trkpt>
      <trkpt lat="47.2981" lon="4.9932">
        <ele>381.352</ele>
        <time>2012-08-03T09:57:50Z</time>
      </trkpt>
      <trkpt lat="47.29797" lon="4.99312">
        <ele>380.036</ele>
        <time>2012-08-03T09:58:01Z</time>
      </trkpt>
      <trkpt lat="47.29782" lon="4.99303">
        <ele>380.524</ele>
        <time>2012-08-03T09:58:12Z</time>
      </trkpt>
      <trkpt lat="47.2977" lon="4.99293">
        <ele>381.021</ele>
        <time>2012-08-03T09:58:23Z</time>
      </trkpt>
      <trkpt lat="47.29763" lon="4.99283">
        <ele>383.665</ele>
        <time>2012-08-03T09:58:34Z</time>
      </trkpt>
      <trkpt lat="47.29748" lon="4.99275">
        <ele>386.027</ele>
        <time>2012-08-03T09:58:45Z</time>
      </trkpt>
      <trkpt lat="47.29738" lon="4.99262">
        <ele>386.103</ele>
        <time>2012-08-03T09:58:56Z</time>
      </trkpt>
      <trkpt lat="47.29723" lon="4.99257">
        <ele>386.006</ele>
        <time>2012-08-03T09:59:07Z</time>
      </trkpt>
      <trkpt lat="47.297" lon="4.99252">
        <ele>383.347</ele>
        <time>2012-08-03T09:59:18Z</time>
      </trkpt>
      <trkpt lat="47.29687" lon="4.99253">
        <ele>380.883</ele>
        <time>2012-08-03T09:59:29Z</time>
      </trkpt>
      <trkpt lat="47.29677" lon="4.99252">
        <ele>380.781</ele>
        <time>2012-08-03T09:59:40Z</time>
      </trkpt>
      <trkpt lat="47.29658" lon="4.99257">
        <ele>380.484</ele>
        <time>2012-08-03T09:59:51Z</time>
      </trkpt>
      <trkpt lat="47.29647" lon="4.9926">
        <ele>379.594</ele>
        <time>2012-08-03T10:00:02Z</time>
      </trkpt>
      <trkpt lat="47.29633" lon="4.99262">
        <ele>379.123</ele>
        <time>2012-08-03T10:00:13Z</time>
      </trkpt>
      <trkpt lat="47.2962" lon="4.99263">
        <ele>378.915</ele>
        <time>2012-08-03T10:00:24Z</time>
      </trkpt>
      <trkpt lat="47.29602" lon="4.99265">
        <ele>377.127</ele>
        <time>2012-08-03T10:00:35Z</time>
      </trkpt>
      <trkpt lat="47.29582" lon="4.99273">
        <ele>374.112</ele>
        <time>2012-08-03T10:00:46Z</time>
      </trkpt>
      <trkpt lat="47.2957" lon="4.99275">
        <ele>372.039</ele>
        <time>2012-08-03T10:00:57Z</time>
      </trkpt>
      <trkpt lat="47.2956" lon="4.99278">
        <ele>372.971</ele>
        <time>2012-08-03T10:01:08Z</time>
      </trkpt>
      <trkpt lat="47.29537" lon="4.99285">
        <ele>372.196</ele>
        <time>2012-08-03T10:01:19Z</time>
      </trkpt>
      <trkpt lat="47.29528" lon="4.9929">
        <ele>370.786</ele>
        <time>2012-08-03T10:01:30Z</time>
      </trkpt>
      <trkpt lat="47.29507" lon="4.99293">
        <ele>368.407</ele>
        <time>2012-08-03T10:01:41Z</time>
      </trkpt>
      <trkpt lat="47.29487" lon="4.99302">
        <ele>366.514</ele>
        <time>2012-08-03T10:01:52Z</time>
      </trkpt>
      <trkpt lat="47.29472" lon="4.99322">
        <ele>365.996</ele>
        <time>2012-08-03T10:02:03Z</time>
      </trkpt>
      <trkpt lat="47.29457" lon="4.99332">
        <ele>368.475</ele>
        <time>2012-08-03T10:02:14Z</time>
      </trkpt>
      <trkpt lat="47.29445" lon="4.99343">
        <ele>368.793</ele>
        <time>2012-08-03T10:02:25Z</time>
      </trkpt>
      <trkpt lat="47.2943" lon="4.99355">
        <ele>371.416</ele>
        <time>2012-08-03T10:02:36Z</time>
      </trkpt>
      <trkpt lat="47.2942" lon="4.99367">
        <ele>370.462</ele>
        <time>2012-08-03T10:02:47Z</time>
      </trkpt>
      <trkpt lat="47.29412" lon="4.99383">
        <ele>369.933</ele>
        <time>2012-08-03T10:02:58Z</time>
      </trkpt>
      <trkpt lat="47.29405" lon="4.99397">
        <ele>370.132</ele>
        <time>2012-08-03T10:03:09Z</time>
      </trkpt>
      <trkpt lat="47.29397" lon="4.9941">
        <ele>371.393</ele>
        <time>2012-08-03T10:03:20Z</time>
      </trkpt>
      <trkpt lat="47.29392" lon="4.99423">
        <ele>371.367</ele>
        <time>2012-08-03T10:03:31Z</time>
      </trkpt>
      <trkpt lat="47.29383" lon="4.9944">
        <ele>331.9</ele>
        <time>2012-08-03T10:03:42Z</time>
      </trkpt>
      <trkpt lat="47.29372" lon="4.99453">
        <ele>366.241</ele>
        <time>2012-08-03T10:03:53Z</time>
      </trkpt>
      <trkpt lat="47.2936" lon="4.99467">
        <ele>362.323</ele>
        <time>2012-08-03T10:04:04Z</time>
      </trkpt>
      <trkpt lat="47.29348" lon="4.9948">
        <ele>357.392</ele>
        <time>2012-08-03T10:04:15Z</time>
      </trkpt>
      <trkpt lat="47.29337" lon="4.99495">
        <ele>354.513</ele>
        <time>2012-08-03T10:04:26Z</time>
      </trkpt>
      <trkpt lat="47.29325" lon="4.99507">
        <ele>351.99</ele>
        <time>2012-08-03T10:04:37Z</time>
      </trkpt>
      <trkpt lat="47.29315" lon="4.99525">
        <ele>346.561</ele>
        <time>2012-08-03T10:04:48Z</time>
      </trkpt>
      <trkpt lat="47.29305" lon="4.99537">
        <ele>340.684</ele>
        <time>2012-08-03T10:04:59Z</time>
      </trkpt>
      <trkpt lat="47.29293" lon="4.99545">
        <ele>337.634</ele>
        <time>2012-08-03T10:05:10Z</time>
      </trkpt>
      <trkpt lat="47.29292" lon="4.99553">
        <ele>336.401</ele>
        <time>2012-08-03T10:05:21Z</time>
      </trkpt>
      <trkpt lat="47.29292" lon="4.99555">
        <ele>335.912</ele>
        <time>2012-08-03T10:05:32Z</time>
      </trkpt>
      <trkpt lat="47.29283" lon="4.99573">
        <ele>332.484</ele>
        <time>2012-08-03T10:05:43Z</time>
      </trkpt>
      <trkpt lat="47.29277" lon="4.99593">
        <ele>330.722</ele>
        <time>2012-08-03T10:05:54Z</time>
      </trkpt>
      <trkpt lat="47.2927" lon="4.9961">
        <ele>329.488</ele>
        <time>2012-08-03T10:06:05Z</time>
      </trkpt>
      <trkpt lat="47.2927" lon="4.99625">
        <ele>328.897</ele>
        <time>2012-08-03T10:06:16Z</time>
      </trkpt>
      <trkpt lat="47.2927" lon="4.9965">
        <ele>326.232</ele>
        <time>2012-08-03T10:06:27Z</time>
      </trkpt>
      <trkpt lat="47.29273" lon="4.99672">
        <ele>323.798</ele>
        <time>2012-08-03T10:06:38Z</time>
      </trkpt>
      <trkpt lat="47.29268" lon="4.99695">
        <ele>319.958</ele>
        <time>2012-08-03T10:06:49Z</time>
      </trkpt>
      <trkpt lat="47.29268" lon="4.99713">
        <ele>316.77</ele>
        <time>2012-08-03T10:07:00Z</time>
      </trkpt>
      <trkpt lat="47.29268" lon="4.99733">
        <ele>313.381</ele>
        <time>2012-08-03T10:07:11Z</time>
      </trkpt>
      <trkpt lat="47.29268" lon="4.99758">
        <ele>310.186</ele>
        <time>2012-08-03T10:07:22Z</time>
      </trkpt>
      <trkpt lat="47.29265" lon="4.9978">
        <ele>308.601</ele>
        <time>2012-08-03T10:07:33Z</time>
      </trkpt>
      <trkpt lat="47.29263" lon="4.99795">
        <ele>290.6</ele>
        <time>2012-08-03T10:07:44Z</time>
      </trkpt>
      <trkpt lat="47.29263" lon="4.99815">
        <ele>306.674</ele>
        <time>2012-08-03T10:07:55Z</time>
      </trkpt>
      <trkpt lat="47.29258" lon="4.99835">
        <ele>305.95</ele>
        <time>2012-08-03T10:08:06Z</time>
      </trkpt>
      <trkpt lat="47.2925" lon="4.99858">
        <ele>305.464</ele>
        <time>2012-08-03T10:08:17Z</time>
      </trkpt>
      <trkpt lat="47.29245" lon="4.99878">
        <ele>304.872</ele>
        <time>2012-08-03T10:08:28Z</time>
      </trkpt>
      <trkpt lat="47.2924" lon="4.99893">
        <ele>304.433</ele>
        <time>2012-08-03T10:08:39Z</time>
      </trkpt>
      <trkpt lat="47.29235" lon="4.9991">
        <ele>303.402</ele>
        <time>2012-08-03T10:08:50Z</time>
      </trkpt>
      <trkpt lat="47.29233" lon="4.99925">
        <ele>303.912</ele>
        <time>2012-08-03T10:09:01Z</time>
      </trkpt>
      <trkpt lat="47.29233" lon="4.99947">
        <ele>304.783</ele>
        <time>2012-08-03T10:09:12Z</time>
      </trkpt>
      <trkpt lat="47.29228" lon="4.99963">
        <ele>306.056</ele>
        <time>2012-08-03T10:09:23Z</time>
      </trkpt>
      <trkpt lat="47.29225" lon="4.99977">
        <ele>307.071</ele>
        <time>2012-08-03T10:09:34Z</time>
      </trkpt>
      <trkpt lat="47.29218" lon="5">
        <ele>304.488</ele>
        <time>2012-08-03T10:09:45Z</time>
      </trkpt>
      <trkpt lat="47.29218" lon="5.0001">
        <ele>302.645</ele>
        <time>2012-08-03T10:09:56Z</time>
      </trkpt>
      <trkpt lat="47.29218" lon="5.00012">
        <ele>302.066</ele>
        <time>2012-08-03T10:10:07Z</time>
      </trkpt>
      <trkpt lat="47.29218" lon="5.00012">
        <ele>302.066</ele>
        <time>2012-08-03T10:10:18Z</time>
      </trkpt>
      <trkpt lat="47.29218" lon="5.00012">
        <ele>302.066</ele>
        <time>2012-08-03T10:10:29Z</time>
      </trkpt>
      <trkpt lat="47.29218" lon="5.00012">
        <ele>302.066</ele>
        <time>2012-08-03T10:10:40Z</time>
      </trkpt>
      <trkpt lat="47.29218" lon="5.00012">
        <ele>302.066</ele>
        <time>2012-08-03T10:10:51Z</time>
      </trkpt>
      <trkpt lat="47.29218" lon="5.00012">
        <ele>302.066</ele>
        <time>2012-08-03T10:11:02Z</time>
      </trkpt>
      <trkpt lat="47.29217" lon="5.00015">
        <ele>301.678</ele>
        <time>2012-08-03T10:11:13Z</time>
      </trkpt>
      <trkpt lat="47.29217" lon="5.00022">
        <ele>303.35</ele>
        <time>2012-08-03T10:11:24Z</time>
      </trkpt>
      <trkpt lat="47.29212" lon="5.00037">
        <ele>305.625</ele>
        <time>2012-08-03T10:11:35Z</time>
      </trkpt>
      <trkpt lat="47.29212" lon="5.00053">
        <ele>306.374</ele>
        <time>2012-08-03T10:11:46Z</time>
      </trkpt>
      <trkpt lat="47.29213" lon="5.00075">
        <ele>307.897</ele>
        <time>2012-08-03T10:11:57Z</time>
      </trkpt>
      <trkpt lat="47.2921" lon="5.00092">
        <ele>306.54</ele>
        <time>2012-08-03T10:12:08Z</time>
      </trkpt>
      <trkpt lat="47.29207" lon="5.00117">
        <ele>305.499</ele>
        <time>2012-08-03T10:12:19Z</time>
      </trkpt>
      <trkpt lat="47.29205" lon="5.00133">
        <ele>304.821</ele>
        <time>2012-08-03T10:12:30Z</time>
      </trkpt>
      <trkpt lat="47.29192" lon="5.0015">
        <ele>302.941</ele>
        <time>2012-08-03T10:12:41Z</time>
      </trkpt>
      <trkpt lat="47.29193" lon="5.00163">
        <ele>300.525</ele>
        <time>2012-08-03T10:12:52Z</time>
      </trkpt>
      <trkpt lat="47.29203" lon="5.00173">
        <ele>301.059</ele>
        <time>2012-08-03T10:13:03Z</time>
      </trkpt>
      <trkpt lat="47.29207" lon="5.00185">
        <ele>300.028</ele>
        <time>2012-08-03T10:13:14Z</time>
      </trkpt>
      <trkpt lat="47.29213" lon="5.00198">
        <ele>299.849</ele>
        <time>2012-08-03T10:13:25Z</time>
      </trkpt>
      <trkpt lat="47.29222" lon="5.00215">
        <ele>298.981</ele>
        <time>2012-08-03T10:13:36Z</time>
      </trkpt>
      <trkpt lat="47.29215" lon="5.00233">
        <ele>297.358</ele>
        <time>2012-08-03T10:13:47Z</time>
      </trkpt>
      <trkpt lat="47.29208" lon="5.00252">
        <ele>293.595</ele>
        <time>2012-08-03T10:13:58Z</time>
      </trkpt>
      <trkpt lat="47.29202" lon="5.00272">
        <ele>293.195</ele>
        <time>2012-08-03T10:14:09Z</time>
      </trkpt>
      <trkpt lat="47.29197" lon="5.00292">
        <ele>292.026</ele>
        <time>2012-08-03T10:14:20Z</time>
      </trkpt>
      <trkpt lat="47.29192" lon="5.00313">
        <ele>289.621</ele>
        <time>2012-08-03T10:14:31Z</time>
      </trkpt>
      <trkpt lat="47.29192" lon="5.00328">
        <ele>289.497</ele>
        <time>2012-08-03T10:14:42Z</time>
      </trkpt>
      <trkpt lat="47.29192" lon="5.00342">
        <ele>269</ele>
        <time>2012-08-03T10:14:53Z</time>
      </trkpt>
      <trkpt lat="47.29197" lon="5.0035">
        <ele>297.539</ele>
        <time>2012-08-03T10:15:04Z</time>
      </trkpt>
      <trkpt lat="47.29205" lon="5.0036">
        <ele>297.17</ele>
        <time>2012-08-03T10:15:15Z</time>
      </trkpt>
      <trkpt lat="47.29207" lon="5.0038">
        <ele>293.287</ele>
        <time>2012-08-03T10:15:26Z</time>
      </trkpt>
      <trkpt lat="47.292" lon="5.00395">
        <ele>295.028</ele>
        <time>2012-08-03T10:15:37Z</time>
      </trkpt>
      <trkpt lat="47.29203" lon="5.00407">
        <ele>297.678</ele>
        <time>2012-08-03T10:15:48Z</time>
      </trkpt>
      <trkpt lat="47.29215" lon="5.00423">
        <ele>301.668</ele>
        <time>2012-08-03T10:15:59Z</time>
      </trkpt>
      <trkpt lat="47.29222" lon="5.00435">
        <ele>304.711</ele>
        <time>2012-08-03T10:16:10Z</time>
      </trkpt>
      <trkpt lat="47.29222" lon="5.00453">
        <ele>302.372</ele>
        <time>2012-08-03T10:16:21Z</time>
      </trkpt>
      <trkpt lat="47.29222" lon="5.00475">
        <ele>299.54</ele>
        <time>2012-08-03T10:16:32Z</time>
      </trkpt>
      <trkpt lat="47.29222" lon="5.0049">
        <ele>296.44</ele>
        <time>2012-08-03T10:16:43Z</time>
      </trkpt>
      <trkpt lat="47.29222" lon="5.0051">
        <ele>292.726</ele>
        <time>2012-08-03T10:16:54Z</time>
      </trkpt>
      <trkpt lat="47.29217" lon="5.00523">
        <ele>293.326</ele>
        <time>2012-08-03T10:17:05Z</time>
      </trkpt>
      <trkpt lat="47.29222" lon="5.00543">
        <ele>292.816</ele>
        <time>2012-08-03T10:17:16Z</time>
      </trkpt>
      <trkpt lat="47.29222" lon="5.00555">
        <ele>292.78</ele>
        <time>2012-08-03T10:17:27Z</time>
      </trkpt>
      <trkpt lat="47.2923" lon="5.00568">
        <ele>291.992</ele>
        <time>2012-08-03T10:17:38Z</time>
      </trkpt>
      <trkpt lat="47.29235" lon="5.00597">
        <ele>286.854</ele>
        <time>2012-08-03T10:17:49Z</time>
      </trkpt>
      <trkpt lat="47.29242" lon="5.00625">
        <ele>279.918</ele>
        <time>2012-08-03T10:18:00Z</time>
      </trkpt>
      <trkpt lat="47.29245" lon="5.00632">
        <ele>279.368</ele>
        <time>2012-08-03T10:18:11Z</time>
      </trkpt>
    </trkseg>
  </trk>
</gpx>